Observation data for Menard on 01/12/2018      Previous  Date  Next       Current Mesonet Observations  Soil Data  Daily Summary Page  Observations in Plain Language
KMD1 120600Z 32001KT 01/M10 A303 RMK A01 T00141097  RH  043%=      5-min Rain = 0
KMD1 120601Z 33002KT 01/M10 A303 RMK A01 T00141097  RH  043%=      5-min Rain = 0
KMD1 120602Z 32002KT 01/M10 A303 RMK A01 T00141097  RH  043%=      5-min Rain = 0
KMD1 120603Z 31003KT 01/M10 A303 RMK A01 T00131098  RH  043%=      5-min Rain = 0
KMD1 120604Z 32003KT 01/M10 A303 RMK A01 T00131098  RH  043%=      5-min Rain = 0
KMD1 120605Z 31003KT 01/M10 A303 RMK A01 T00131098  RH  043%=      5-min Rain = 0
KMD1 120606Z 32004KT 01/M10 A303 RMK A01 T00121099  RH  043%=      5-min Rain = 0
KMD1 120607Z 31003KT 01/M10 A303 RMK A01 T00121098  RH  043%=      5-min Rain = 0
KMD1 120608Z 31003KT 01/M10 A303 RMK A01 T00121100  RH  043%=      5-min Rain = 0
KMD1 120609Z 31003KT 01/M10 A303 RMK A01 T00111099  RH  044%=      5-min Rain = 0
KMD1 120610Z 31003KT 01/M10 A303 RMK A01 T00101099  RH  044%=      5-min Rain = 0
KMD1 120611Z 31004KT 01/M10 A303 RMK A01 T00091099  RH  044%=      5-min Rain = 0
KMD1 120612Z 31004KT 01/M10 A303 RMK A01 T00091100  RH  044%=      5-min Rain = 0
KMD1 120613Z 31005KT 01/M10 A303 RMK A01 T00081101  RH  044%=      5-min Rain = 0
KMD1 120614Z 31005KT 01/M10 A303 RMK A01 T00071101  RH  044%=      5-min Rain = 0
KMD1 120615Z 31004KT 01/M10 A303 RMK A01 T00061100  RH  045%=      5-min Rain = 0
KMD1 120616Z 31004KT 01/M10 A303 RMK A01 T00051100  RH  045%=      5-min Rain = 0
KMD1 120617Z 31004KT 01/M10 A303 RMK A01 T00051100  RH  045%=      5-min Rain = 0
KMD1 120618Z 32004KT 01/M10 A303 RMK A01 T00051100  RH  045%=      5-min Rain = 0
KMD1 120619Z 32004KT 01/M10 A303 RMK A01 T00061100  RH  045%=      5-min Rain = 0
KMD1 120620Z 32005KT 01/M10 A303 RMK A01 T00061100  RH  045%=      5-min Rain = 0
KMD1 120621Z 33005KT 01/M10 A303 RMK A01 T00061099  RH  045%=      5-min Rain = 0
KMD1 120622Z 32004KT 01/M10 A303 RMK A01 T00071098  RH  045%=      5-min Rain = 0
KMD1 120623Z 33005KT 01/M10 A303 RMK A01 T00081097  RH  046%=      5-min Rain = 0
KMD1 120624Z 33004KT 01/M10 A3029 RMK A01 T00081097  RH  045%=      5-min Rain = 0
KMD1 120625Z 34004KT 01/M10 A3029 RMK A01 T00091097  RH  045%=      5-min Rain = 0
KMD1 120626Z 34003KT 01/M10 A3029 RMK A01 T00091097  RH  045%=      5-min Rain = 0
KMD1 120627Z 34003KT 01/M10 A3029 RMK A01 T00091097  RH  045%=      5-min Rain = 0
KMD1 120628Z 34003KT 01/M10 A3029 RMK A01 T00081097  RH  045%=      5-min Rain = 0
KMD1 120629Z 34003KT 01/M10 A3029 RMK A01 T00081097  RH  046%=      5-min Rain = 0
KMD1 120630Z 33003KT 01/M10 A3029 RMK A01 T00071097  RH  046%=      5-min Rain = 0
KMD1 120631Z 33003KT 01/M10 A3029 RMK A01 T00061097  RH  046%=      5-min Rain = 0
KMD1 120632Z 34004KT 01/M10 A3029 RMK A01 T00061097  RH  046%=      5-min Rain = 0
KMD1 120633Z 33004KT 01/M10 A3029 RMK A01 T00061097  RH  046%=      5-min Rain = 0
KMD1 120634Z 33003KT 01/M10 A3029 RMK A01 T00051097  RH  046%=      5-min Rain = 0
KMD1 120635Z 34003KT 00/M10 A3029 RMK A01 T00041097  RH  047%=      5-min Rain = 0
KMD1 120636Z 34003KT 00/M10 A3029 RMK A01 T00031097  RH  047%=      5-min Rain = 0
KMD1 120637Z 34002KT 00/M10 A3029 RMK A01 T00021097  RH  047%=      5-min Rain = 0
KMD1 120638Z 34003KT 00/M10 A3029 RMK A01 T00011097  RH  048%=      5-min Rain = 0
KMD1 120639Z 34002KT 00/M10 A3029 RMK A01 T00011096  RH  048%=      5-min Rain = 0
KMD1 120640Z 33002KT 00/10 A3029 RMK A01 T00000-97  RH  048%=      5-min Rain = 0
KMD1 120641Z 33002KT 00/10 A3029 RMK A01 T00-00-97  RH  048%=      5-min Rain = 0
KMD1 120642Z 33001KT M00/M10 A3029 RMK A01 T10011097  RH  048%=      5-min Rain = 0
KMD1 120643Z 32002KT M00/M10 A3029 RMK A01 T10011097  RH  048%=      5-min Rain = 0
KMD1 120644Z 32002KT M00/M10 A303 RMK A01 T10021097  RH  048%=      5-min Rain = 0
KMD1 120645Z 31001KT M00/M10 A303 RMK A01 T10021097  RH  048%=      5-min Rain = 0
KMD1 120646Z 32001KT M00/M10 A303 RMK A01 T10021098  RH  048%=      5-min Rain = 0
KMD1 120647Z 31001KT M00/M10 A303 RMK A01 T10021098  RH  048%=      5-min Rain = 0
KMD1 120648Z 31000KT M00/M10 A303 RMK A01 T10031099  RH  048%=      5-min Rain = 0
KMD1 120649Z 29000KT M00/M10 A303 RMK A01 T10031099  RH  048%=      5-min Rain = 0
KMD1 120650Z 30001KT M00/M10 A303 RMK A01 T10041099  RH  049%=      5-min Rain = 0
KMD1 120651Z 30001KT M00/M10 A303 RMK A01 T10041099  RH  049%=      5-min Rain = 0
KMD1 120652Z 31002KT M00/M10 A3029 RMK A01 T10041099  RH  049%=      5-min Rain = 0
KMD1 120653Z 31002KT M00/M10 A3029 RMK A01 T10041099  RH  049%=      5-min Rain = 0
KMD1 120654Z 32002KT M00/M10 A3029 RMK A01 T10041100  RH  048%=      5-min Rain = 0
KMD1 120655Z 31002KT M00/M10 A3029 RMK A01 T10031099  RH  048%=      5-min Rain = 0
KMD1 120656Z 30003KT M00/M10 A3029 RMK A01 T10021099  RH  048%=      5-min Rain = 0
KMD1 120657Z 31003KT M00/M10 A3029 RMK A01 T10031101  RH  048%=      5-min Rain = 0
KMD1 120658Z 31003KT M01/M10 A3029 RMK A01 T10051101  RH  048%=      5-min Rain = 0
KMD1 120659Z 32005KT M01/M10 A3029 RMK A01 T10061101  RH  049%=      5-min Rain = 0
KMD1 120700Z 32004KT M01/M10 A3029 RMK A01 T10081101  RH  049%=      5-min Rain = 0
KMD1 120701Z 32004KT M01/M10 A3029 RMK A01 T10091102  RH  049%=      5-min Rain = 0
KMD1 120702Z 32004KT M01/M10 A3029 RMK A01 T10091100  RH  050%=      5-min Rain = 0
KMD1 120703Z 32004KT M01/M10 A3029 RMK A01 T10081099  RH  050%=      5-min Rain = 0
KMD1 120704Z 31004KT M01/M10 A3029 RMK A01 T10081099  RH  050%=      5-min Rain = 0
KMD1 120705Z 31004KT M01/M10 A3029 RMK A01 T10071099  RH  050%=      5-min Rain = 0
KMD1 120706Z 31004KT M01/M10 A3029 RMK A01 T10071099  RH  050%=      5-min Rain = 0
KMD1 120707Z 31004KT M01/M10 A3029 RMK A01 T10081101  RH  049%=      5-min Rain = 0
KMD1 120708Z 31004KT M01/M10 A3029 RMK A01 T10091100  RH  050%=      5-min Rain = 0
KMD1 120709Z 31004KT M01/M10 A3029 RMK A01 T10081100  RH  050%=      5-min Rain = 0
KMD1 120710Z 30004KT M01/M10 A3029 RMK A01 T10091100  RH  050%=      5-min Rain = 0
KMD1 120711Z 31004KT M01/M10 A3029 RMK A01 T10091100  RH  050%=      5-min Rain = 0
KMD1 120712Z 31004KT M01/M10 A3029 RMK A01 T10101100  RH  050%=      5-min Rain = 0
KMD1 120713Z 31004KT M01/M10 A3029 RMK A01 T10101100  RH  050%=      5-min Rain = 0
KMD1 120714Z 31004KT M01/M10 A3029 RMK A01 T10101100  RH  050%=      5-min Rain = 0
KMD1 120715Z 31005KT M01/M10 A3029 RMK A01 T10101100  RH  051%=      5-min Rain = 0
KMD1 120716Z 31004KT M01/M10 A3029 RMK A01 T10091099  RH  051%=      5-min Rain = 0
KMD1 120717Z 31004KT M01/M10 A3029 RMK A01 T10091100  RH  050%=      5-min Rain = 0
KMD1 120718Z 31004KT M01/M10 A3029 RMK A01 T10091099  RH  050%=      5-min Rain = 0
KMD1 120719Z 31004KT M01/M10 A3029 RMK A01 T10091099  RH  050%=      5-min Rain = 0
KMD1 120720Z 32004KT M01/M10 A3029 RMK A01 T10081099  RH  050%=      5-min Rain = 0
KMD1 120721Z 32004KT M01/M10 A3029 RMK A01 T10081099  RH  050%=      5-min Rain = 0
KMD1 120722Z 33004KT M01/M10 A3029 RMK A01 T10081099  RH  050%=      5-min Rain = 0
KMD1 120723Z 32004KT M01/M10 A3029 RMK A01 T10081098  RH  050%=      5-min Rain = 0
KMD1 120724Z 33003KT M01/M10 A3029 RMK A01 T10071096  RH  051%=      5-min Rain = 0
KMD1 120725Z 32004KT M01/M10 A3029 RMK A01 T10061096  RH  051%=      5-min Rain = 0
KMD1 120726Z 32004KT M01/M10 A3029 RMK A01 T10071095  RH  051%=      5-min Rain = 0
KMD1 120727Z 32005KT M01/M10 A3029 RMK A01 T10081096  RH  052%=      5-min Rain = 0
KMD1 120728Z 32004KT M01/M10 A3029 RMK A01 T10101096  RH  052%=      5-min Rain = 0
KMD1 120729Z 31004KT M01/M10 A3029 RMK A01 T10101095  RH  053%=      5-min Rain = 0
KMD1 120730Z 31005KT M01/M10 A3029 RMK A01 T10111096  RH  052%=      5-min Rain = 0
KMD1 120731Z 31005KT M01/M10 A3029 RMK A01 T10101098  RH  051%=      5-min Rain = 0
KMD1 120732Z 31005KT M01/M10 A3029 RMK A01 T10111100  RH  051%=      5-min Rain = 0
KMD1 120733Z 32005KT M01/M10 A3029 RMK A01 T10121098  RH  052%=      5-min Rain = 0
KMD1 120734Z 31005KT M01/M10 A3029 RMK A01 T10121096  RH  053%=      5-min Rain = 0
KMD1 120735Z 32005KT M01/M10 A3029 RMK A01 T10111096  RH  052%=      5-min Rain = 0
KMD1 120736Z 32005KT M01/M10 A3029 RMK A01 T10101097  RH  052%=      5-min Rain = 0
KMD1 120737Z 32004KT M01/M10 A3029 RMK A01 T10101096  RH  052%=      5-min Rain = 0
KMD1 120738Z 32004KT M01/M10 A3029 RMK A01 T10091095  RH  052%=      5-min Rain = 0
KMD1 120739Z 32005KT M01/M10 A3029 RMK A01 T10091096  RH  052%=      5-min Rain = 0
KMD1 120740Z 31004KT M01/M10 A3029 RMK A01 T10091095  RH  052%=      5-min Rain = 0
KMD1 120741Z 32005KT M01/M10 A3029 RMK A01 T10081095  RH  052%=      5-min Rain = 0
KMD1 120742Z 32005KT M01/M10 A3029 RMK A01 T10081096  RH  051%=      5-min Rain = 0
KMD1 120743Z 31004KT M01/M10 A3029 RMK A01 T10071096  RH  051%=      5-min Rain = 0
KMD1 120744Z 31004KT M01/M10 A3029 RMK A01 T10081097  RH  051%=      5-min Rain = 0
KMD1 120745Z 31004KT M01/M10 A3029 RMK A01 T10081097  RH  051%=      5-min Rain = 0
KMD1 120746Z 31003KT M01/M10 A3029 RMK A01 T10101099  RH  051%=      5-min Rain = 0
KMD1 120747Z 31004KT M01/M10 A3029 RMK A01 T10141098  RH  053%=      5-min Rain = 0
KMD1 120748Z 31003KT M02/M10 A3029 RMK A01 T10161097  RH  054%=      5-min Rain = 0
KMD1 120749Z 31003KT M02/M10 A3029 RMK A01 T10161096  RH  055%=      5-min Rain = 0
KMD1 120750Z 31003KT M02/M10 A3029 RMK A01 T10161095  RH  055%=      5-min Rain = 0
KMD1 120751Z 31003KT M02/M10 A3029 RMK A01 T10171095  RH  055%=      5-min Rain = 0
KMD1 120752Z 31003KT M02/M10 A3029 RMK A01 T10181095  RH  056%=      5-min Rain = 0
KMD1 120753Z 31003KT M02/M09 A3029 RMK A01 T10181094  RH  056%=      5-min Rain = 0
KMD1 120754Z 32004KT M02/M10 A3029 RMK A01 T10181095  RH  056%=      5-min Rain = 0
KMD1 120755Z 31004KT M02/M10 A3029 RMK A01 T10181095  RH  056%=      5-min Rain = 0
KMD1 120756Z 32004KT M02/M10 A3029 RMK A01 T10171095  RH  055%=      5-min Rain = 0
KMD1 120757Z 31004KT M02/M10 A3029 RMK A01 T10171096  RH  055%=      5-min Rain = 0
KMD1 120758Z 31005KT M02/M10 A3029 RMK A01 T10171097  RH  054%=      5-min Rain = 0
KMD1 120759Z 31005KT M02/M10 A3029 RMK A01 T10171098  RH  054%=      5-min Rain = 0
KMD1 120800Z 31005KT M02/M10 A3029 RMK A01 T10171096  RH  055%=      5-min Rain = 0
KMD1 120801Z 31006KT M02/M10 A3029 RMK A01 T10151096  RH  054%=      5-min Rain = 0
KMD1 120802Z 30006KT M02/M10 A3029 RMK A01 T10151097  RH  054%=      5-min Rain = 0
KMD1 120803Z 31007KT M02/M10 A3029 RMK A01 T10151097  RH  054%=      5-min Rain = 0
KMD1 120804Z 30007KT M02/M10 A3029 RMK A01 T10151096  RH  054%=      5-min Rain = 0
KMD1 120805Z 30007KT M02/M10 A303 RMK A01 T10151096  RH  054%=      5-min Rain = 0
KMD1 120806Z 31007KT M01/M10 A303 RMK A01 T10141095  RH  054%=      5-min Rain = 0
KMD1 120807Z 31007KT M01/M09 A303 RMK A01 T10131094  RH  054%=      5-min Rain = 0
KMD1 120808Z 31007KT M01/M09 A303 RMK A01 T10121094  RH  054%=      5-min Rain = 0
KMD1 120809Z 31006KT M01/M09 A303 RMK A01 T10111093  RH  054%=      5-min Rain = 0
KMD1 120810Z 31007KT M01/M09 A303 RMK A01 T10101093  RH  053%=      5-min Rain = 0
KMD1 120811Z 32007KT M01/M09 A303 RMK A01 T10091092  RH  053%=      5-min Rain = 0
KMD1 120812Z 32007KT M01/M09 A303 RMK A01 T10071091  RH  053%=      5-min Rain = 0
KMD1 120813Z 32006KT M01/M09 A303 RMK A01 T10071091  RH  053%=      5-min Rain = 0
KMD1 120814Z 32007KT M01/M09 A303 RMK A01 T10061091  RH  053%=      5-min Rain = 0
KMD1 120815Z 32006KT M01/M09 A303 RMK A01 T10051090  RH  053%=      5-min Rain = 0
KMD1 120816Z 33005KT M00/M09 A303 RMK A01 T10041091  RH  052%=      5-min Rain = 0
KMD1 120817Z 33004KT M00/M09 A303 RMK A01 T10041091  RH  052%=      5-min Rain = 0
KMD1 120818Z 34004KT M00/M09 A3029 RMK A01 T10041090  RH  052%=      5-min Rain = 0
KMD1 120819Z 34003KT M01/M09 A3029 RMK A01 T10051090  RH  053%=      5-min Rain = 0
KMD1 120820Z 36003KT M01/M09 A3029 RMK A01 T10081091  RH  053%=      5-min Rain = 0
KMD1 120821Z 35004KT M01/M09 A3029 RMK A01 T10141094  RH  054%=      5-min Rain = 0
KMD1 120822Z 36004KT M02/M10 A3029 RMK A01 T10201095  RH  056%=      5-min Rain = 0
KMD1 120823Z 36004KT M02/M10 A3029 RMK A01 T10241095  RH  058%=      5-min Rain = 0
KMD1 120824Z 35004KT M03/M09 A3029 RMK A01 T10271094  RH  060%=      5-min Rain = 0
KMD1 120825Z 35003KT M03/M09 A3029 RMK A01 T10281093  RH  061%=      5-min Rain = 0
KMD1 120826Z 35003KT M03/M09 A3029 RMK A01 T10281092  RH  061%=      5-min Rain = 0
KMD1 120827Z 34004KT M03/M09 A3029 RMK A01 T10291093  RH  061%=      5-min Rain = 0
KMD1 120828Z 33003KT M03/M10 A3029 RMK A01 T10301095  RH  061%=      5-min Rain = 0
KMD1 120829Z 32002KT M03/M10 A3029 RMK A01 T10321097  RH  061%=      5-min Rain = 0
KMD1 120830Z 32003KT M03/M10 A3029 RMK A01 T10331096  RH  062%=      5-min Rain = 0
KMD1 120831Z 32002KT M03/M10 A3029 RMK A01 T10341095  RH  063%=      5-min Rain = 0
KMD1 120832Z 30003KT M03/M09 A3029 RMK A01 T10331094  RH  063%=      5-min Rain = 0
KMD1 120833Z 30004KT M03/M09 A3029 RMK A01 T10321094  RH  062%=      5-min Rain = 0
KMD1 120834Z 31004KT M03/M10 A3029 RMK A01 T10321095  RH  062%=      5-min Rain = 0
KMD1 120835Z 31004KT M03/M09 A3029 RMK A01 T10301094  RH  061%=      5-min Rain = 0
KMD1 120836Z 31005KT M03/M09 A3029 RMK A01 T10261092  RH  061%=      5-min Rain = 0
KMD1 120837Z 31004KT M02/M09 A303 RMK A01 T10211089  RH  059%=      5-min Rain = 0
KMD1 120838Z 31004KT M02/M09 A303 RMK A01 T10181090  RH  058%=      5-min Rain = 0
KMD1 120839Z 32005KT M02/M09 A303 RMK A01 T10171090  RH  057%=      5-min Rain = 0
KMD1 120840Z 32005KT M02/M09 A303 RMK A01 T10151090  RH  057%=      5-min Rain = 0
KMD1 120841Z 32005KT M01/M09 A303 RMK A01 T10131090  RH  056%=      5-min Rain = 0
KMD1 120842Z 32004KT M01/M09 A303 RMK A01 T10121090  RH  055%=      5-min Rain = 0
KMD1 120843Z 33004KT M01/M09 A303 RMK A01 T10121090  RH  055%=      5-min Rain = 0
KMD1 120844Z 33004KT M01/M09 A3029 RMK A01 T10121090  RH  055%=      5-min Rain = 0
KMD1 120845Z 34003KT M01/M09 A3029 RMK A01 T10121090  RH  055%=      5-min Rain = 0
KMD1 120846Z 34004KT M01/M09 A3029 RMK A01 T10141091  RH  056%=      5-min Rain = 0
KMD1 120847Z 34004KT M02/M09 A3029 RMK A01 T10161091  RH  056%=      5-min Rain = 0
KMD1 120848Z 35003KT M02/M09 A3029 RMK A01 T10171091  RH  057%=      5-min Rain = 0
KMD1 120849Z 35004KT M02/M09 A3029 RMK A01 T10181091  RH  057%=      5-min Rain = 0
KMD1 120850Z 34005KT M02/M09 A3029 RMK A01 T10181091  RH  057%=      5-min Rain = 0
KMD1 120851Z 35003KT M02/M09 A3029 RMK A01 T10191091  RH  058%=      5-min Rain = 0
KMD1 120852Z 35003KT M02/M09 A3029 RMK A01 T10191091  RH  058%=      5-min Rain = 0
KMD1 120853Z 35003KT M02/M09 A3029 RMK A01 T10191091  RH  058%=      5-min Rain = 0
KMD1 120854Z 34003KT M02/M09 A3029 RMK A01 T10191090  RH  058%=      5-min Rain = 0
KMD1 120855Z 35003KT M02/M09 A303 RMK A01 T10181090  RH  058%=      5-min Rain = 0
KMD1 120856Z 34003KT M02/M09 A303 RMK A01 T10181090  RH  058%=      5-min Rain = 0
KMD1 120857Z 34003KT M02/M09 A303 RMK A01 T10171090  RH  058%=      5-min Rain = 0
KMD1 120858Z 34003KT M02/M09 A303 RMK A01 T10171091  RH  057%=      5-min Rain = 0
KMD1 120859Z 35003KT M02/M09 A3029 RMK A01 T10171090  RH  057%=      5-min Rain = 0
KMD1 120900Z 35003KT M02/M09 A3029 RMK A01 T10161089  RH  057%=      5-min Rain = 0
KMD1 120901Z 35003KT M02/M09 A3029 RMK A01 T10161090  RH  057%=      5-min Rain = 0
KMD1 120902Z 35003KT M02/M09 A3029 RMK A01 T10161090  RH  057%=      5-min Rain = 0
KMD1 120903Z 35003KT M02/M09 A3029 RMK A01 T10171091  RH  057%=      5-min Rain = 0
KMD1 120904Z 34004KT M02/M09 A3029 RMK A01 T10171091  RH  057%=      5-min Rain = 0
KMD1 120905Z 33006KT M02/M09 A3029 RMK A01 T10181091  RH  057%=      5-min Rain = 0
KMD1 120906Z 33005KT M02/M09 A3029 RMK A01 T10191091  RH  058%=      5-min Rain = 0
KMD1 120907Z 33005KT M02/M09 A3029 RMK A01 T10191090  RH  058%=      5-min Rain = 0
KMD1 120908Z 33005KT M02/M09 A3029 RMK A01 T10201091  RH  058%=      5-min Rain = 0
KMD1 120909Z 33006KT M02/M09 A3029 RMK A01 T10201091  RH  058%=      5-min Rain = 0
KMD1 120910Z 34006KT M02/M09 A3029 RMK A01 T10211091  RH  059%=      5-min Rain = 0
KMD1 120911Z 34007KT M02/M09 A3029 RMK A01 T10211090  RH  059%=      5-min Rain = 0
KMD1 120912Z 34006KT M02/M09 A3028 RMK A01 T10201089  RH  059%=      5-min Rain = 0
KMD1 120913Z 34007KT M02/M09 A3028 RMK A01 T10201089  RH  059%=      5-min Rain = 0
KMD1 120914Z 34007KT M02/M09 A3028 RMK A01 T10201089  RH  059%=      5-min Rain = 0
KMD1 120915Z 34007KT M02/M09 A3028 RMK A01 T10221090  RH  060%=      5-min Rain = 0
KMD1 120916Z 34007KT M02/M09 A3028 RMK A01 T10231090  RH  060%=      5-min Rain = 0
KMD1 120917Z 34007KT M03/M09 A3028 RMK A01 T10251090  RH  061%=      5-min Rain = 0
KMD1 120918Z 34007KT M03/M09 A3028 RMK A01 T10261090  RH  061%=      5-min Rain = 0
KMD1 120919Z 34007KT M03/M09 A3028 RMK A01 T10261090  RH  062%=      5-min Rain = 0
KMD1 120920Z 34006KT M03/M09 A3028 RMK A01 T10251089  RH  061%=      5-min Rain = 0
KMD1 120921Z 33006KT M02/M09 A3028 RMK A01 T10241089  RH  061%=      5-min Rain = 0
KMD1 120922Z 33007KT M02/M09 A3028 RMK A01 T10241090  RH  061%=      5-min Rain = 0
KMD1 120923Z 33005KT M02/M09 A3028 RMK A01 T10231090  RH  060%=      5-min Rain = 0
KMD1 120924Z 33005KT M02/M09 A3028 RMK A01 T10231090  RH  060%=      5-min Rain = 0
KMD1 120925Z 33006KT M02/M09 A3028 RMK A01 T10231090  RH  060%=      5-min Rain = 0
KMD1 120926Z 33007KT M02/M09 A3028 RMK A01 T10231090  RH  060%=      5-min Rain = 0
KMD1 120927Z 34006KT M02/M09 A3028 RMK A01 T10211089  RH  060%=      5-min Rain = 0
KMD1 120928Z 33006KT M02/M09 A3028 RMK A01 T10211090  RH  059%=      5-min Rain = 0
KMD1 120929Z 33006KT M02/M09 A3029 RMK A01 T10211090  RH  059%=      5-min Rain = 0
KMD1 120930Z 33006KT M02/M09 A3029 RMK A01 T10201090  RH  059%=      5-min Rain = 0
KMD1 120931Z 33006KT M02/M09 A3029 RMK A01 T10191090  RH  059%=      5-min Rain = 0
KMD1 120932Z 33006KT M02/M09 A3029 RMK A01 T10191090  RH  058%=      5-min Rain = 0
KMD1 120933Z 33006KT M02/M09 A3029 RMK A01 T10181089  RH  058%=      5-min Rain = 0
KMD1 120934Z 33006KT M02/M09 A3029 RMK A01 T10171090  RH  058%=      5-min Rain = 0
KMD1 120935Z 34006KT M02/M09 A3029 RMK A01 T10171090  RH  057%=      5-min Rain = 0
KMD1 120936Z 34006KT M02/M09 A3029 RMK A01 T10171090  RH  058%=      5-min Rain = 0
KMD1 120937Z 34005KT M02/M09 A3029 RMK A01 T10181090  RH  058%=      5-min Rain = 0
KMD1 120938Z 34006KT M02/M09 A3029 RMK A01 T10171089  RH  058%=      5-min Rain = 0
KMD1 120939Z 35006KT M02/M09 A3029 RMK A01 T10181089  RH  058%=      5-min Rain = 0
KMD1 120940Z 34006KT M02/M09 A3029 RMK A01 T10191089  RH  059%=      5-min Rain = 0
KMD1 120941Z 34007KT M02/M09 A3029 RMK A01 T10211089  RH  059%=      5-min Rain = 0
KMD1 120942Z 34007KT M02/M09 A3029 RMK A01 T10221089  RH  060%=      5-min Rain = 0
KMD1 120943Z 34006KT M02/M09 A3029 RMK A01 T10211089  RH  060%=      5-min Rain = 0
KMD1 120944Z 34005KT M02/M09 A3029 RMK A01 T10211089  RH  060%=      5-min Rain = 0
KMD1 120945Z 34005KT M02/M09 A3028 RMK A01 T10211089  RH  060%=      5-min Rain = 0
KMD1 120946Z 34006KT M02/M09 A3028 RMK A01 T10221089  RH  060%=      5-min Rain = 0
KMD1 120947Z 34005KT M02/M09 A3028 RMK A01 T10231089  RH  060%=      5-min Rain = 0
KMD1 120948Z 34005KT M02/M09 A3028 RMK A01 T10231090  RH  060%=      5-min Rain = 0
KMD1 120949Z 35005KT M02/M09 A3028 RMK A01 T10241090  RH  060%=      5-min Rain = 0
KMD1 120950Z 34005KT M03/M09 A3029 RMK A01 T10251090  RH  061%=      5-min Rain = 0
KMD1 120951Z 35004KT M03/M09 A3029 RMK A01 T10251090  RH  061%=      5-min Rain = 0
KMD1 120952Z 35004KT M03/M09 A3029 RMK A01 T10251090  RH  061%=      5-min Rain = 0
KMD1 120953Z 36004KT M03/M09 A3029 RMK A01 T10251090  RH  061%=      5-min Rain = 0
KMD1 120954Z 36004KT M03/M09 A3029 RMK A01 T10251090  RH  061%=      5-min Rain = 0
KMD1 120955Z 36003KT M03/M09 A3029 RMK A01 T10251090  RH  061%=      5-min Rain = 0
KMD1 120956Z 35003KT M03/M09 A3029 RMK A01 T10251090  RH  061%=      5-min Rain = 0
KMD1 120957Z 35002KT M03/M09 A3029 RMK A01 T10261090  RH  061%=      5-min Rain = 0
KMD1 120958Z 36002KT M03/M09 A3029 RMK A01 T10261090  RH  061%=      5-min Rain = 0
KMD1 120959Z 00002KT M03/M09 A3029 RMK A01 T10271091  RH  061%=      5-min Rain = 0
KMD1 121000Z 36001KT M03/M09 A3029 RMK A01 T10261090  RH  061%=      5-min Rain = 0
KMD1 121001Z 36002KT M03/M09 A3029 RMK A01 T10261090  RH  061%=      5-min Rain = 0
KMD1 121002Z 01001KT M03/M09 A3029 RMK A01 T10251090  RH  061%=      5-min Rain = 0
KMD1 121003Z 03000KT M03/M09 A3029 RMK A01 T10251091  RH  061%=      5-min Rain = 0
KMD1 121004Z 02000KT M03/M09 A3029 RMK A01 T10251091  RH  061%=      5-min Rain = 0
KMD1 121005Z 00000KT M03/M09 A303 RMK A01 T10261091  RH  061%=      5-min Rain = 0
KMD1 121006Z 06000KT M03/M09 A303 RMK A01 T10261091  RH  061%=      5-min Rain = 0
KMD1 121007Z 34000KT M03/M09 A303 RMK A01 T10261091  RH  061%=      5-min Rain = 0
KMD1 121008Z 33001KT M03/M09 A303 RMK A01 T10261091  RH  061%=      5-min Rain = 0
KMD1 121009Z 32001KT M03/M09 A303 RMK A01 T10271092  RH  061%=      5-min Rain = 0
KMD1 121010Z 32001KT M03/M09 A303 RMK A01 T10281092  RH  061%=      5-min Rain = 0
KMD1 121011Z 30001KT M03/M09 A303 RMK A01 T10281091  RH  062%=      5-min Rain = 0
KMD1 121012Z 29000KT M03/M09 A303 RMK A01 T10271091  RH  061%=      5-min Rain = 0
KMD1 121013Z 27000KT M03/M09 A303 RMK A01 T10281092  RH  061%=      5-min Rain = 0
KMD1 121014Z 26000KT M03/M09 A303 RMK A01 T10281091  RH  062%=      5-min Rain = 0
KMD1 121015Z 24002KT M03/M09 A303 RMK A01 T10281091  RH  062%=      5-min Rain = 0
KMD1 121016Z 24003KT M03/M09 A303 RMK A01 T10291092  RH  062%=      5-min Rain = 0
KMD1 121017Z 22002KT M03/M09 A303 RMK A01 T10301092  RH  062%=      5-min Rain = 0
KMD1 121018Z 21002KT M03/M09 A303 RMK A01 T10291091  RH  062%=      5-min Rain = 0
KMD1 121019Z 24003KT M03/M09 A303 RMK A01 T10281092  RH  062%=      5-min Rain = 0
KMD1 121020Z 23002KT M03/M09 A303 RMK A01 T10291093  RH  061%=      5-min Rain = 0
KMD1 121021Z 24002KT M03/M09 A303 RMK A01 T10301092  RH  062%=      5-min Rain = 0
KMD1 121022Z 24002KT M03/M09 A303 RMK A01 T10301091  RH  063%=      5-min Rain = 0
KMD1 121023Z 24001KT M03/M09 A303 RMK A01 T10311092  RH  063%=      5-min Rain = 0
KMD1 121024Z 24001KT M03/M09 A303 RMK A01 T10321093  RH  063%=      5-min Rain = 0
KMD1 121025Z 23001KT M03/M09 A303 RMK A01 T10331093  RH  063%=      5-min Rain = 0
KMD1 121026Z 23001KT M03/M09 A303 RMK A01 T10331093  RH  063%=      5-min Rain = 0
KMD1 121027Z 22001KT M03/M09 A303 RMK A01 T10331092  RH  064%=      5-min Rain = 0
KMD1 121028Z 22001KT M03/M09 A303 RMK A01 T10331093  RH  063%=      5-min Rain = 0
KMD1 121029Z 20000KT M03/M09 A303 RMK A01 T10321093  RH  063%=      5-min Rain = 0
KMD1 121030Z 25000KT M03/M09 A303 RMK A01 T10321093  RH  063%=      5-min Rain = 0
KMD1 121031Z 25001KT M03/M09 A303 RMK A01 T10321093  RH  063%=      5-min Rain = 0
KMD1 121032Z 27000KT M03/M09 A303 RMK A01 T10321093  RH  062%=      5-min Rain = 0
KMD1 121033Z 30001KT M03/M09 A303 RMK A01 T10301093  RH  062%=      5-min Rain = 0
KMD1 121034Z 31001KT M03/M09 A303 RMK A01 T10291094  RH  061%=      5-min Rain = 0
KMD1 121035Z 31001KT M03/M09 A303 RMK A01 T10291094  RH  061%=      5-min Rain = 0
KMD1 121036Z 30003KT M03/M09 A303 RMK A01 T10291094  RH  061%=      5-min Rain = 0
KMD1 121037Z 31003KT M03/M09 A303 RMK A01 T10271092  RH  061%=      5-min Rain = 0
KMD1 121038Z 30002KT M03/M09 A303 RMK A01 T10261094  RH  060%=      5-min Rain = 0
KMD1 121039Z 31002KT M03/M10 A303 RMK A01 T10271095  RH  060%=      5-min Rain = 0
KMD1 121040Z 32002KT M03/M10 A303 RMK A01 T10281095  RH  060%=      5-min Rain = 0
KMD1 121041Z 32002KT M03/M10 A303 RMK A01 T10301099  RH  059%=      5-min Rain = 0
KMD1 121042Z 32001KT M03/M10 A303 RMK A01 T10321098  RH  060%=      5-min Rain = 0
KMD1 121043Z 32001KT M03/M10 A303 RMK A01 T10331096  RH  062%=      5-min Rain = 0
KMD1 121044Z 33001KT M03/M10 A303 RMK A01 T10341095  RH  063%=      5-min Rain = 0
KMD1 121045Z 32001KT M03/M09 A303 RMK A01 T10321093  RH  063%=      5-min Rain = 0
KMD1 121046Z 31001KT M03/M09 A303 RMK A01 T10311092  RH  063%=      5-min Rain = 0
KMD1 121047Z 33001KT M03/M09 A303 RMK A01 T10291091  RH  062%=      5-min Rain = 0
KMD1 121048Z 29002KT M03/M09 A303 RMK A01 T10281092  RH  061%=      5-min Rain = 0
KMD1 121049Z 34002KT M03/M09 A303 RMK A01 T10271092  RH  061%=      5-min Rain = 0
KMD1 121050Z 35001KT M03/M09 A303 RMK A01 T10261092  RH  061%=      5-min Rain = 0
KMD1 121051Z 35002KT M03/M09 A303 RMK A01 T10261093  RH  060%=      5-min Rain = 0
KMD1 121052Z 30000KT M03/M10 A303 RMK A01 T10281095  RH  060%=      5-min Rain = 0
KMD1 121053Z 34001KT M03/M10 A303 RMK A01 T10321098  RH  060%=      5-min Rain = 0
KMD1 121054Z 34001KT M03/M10 A303 RMK A01 T10341097  RH  062%=      5-min Rain = 0
KMD1 121055Z 00000KT M04/M10 A303 RMK A01 T10351096  RH  063%=      5-min Rain = 0
KMD1 121056Z 32000KT M04/M10 A303 RMK A01 T10361095  RH  063%=      5-min Rain = 0
KMD1 121057Z 32000KT M04/M10 A303 RMK A01 T10371095  RH  064%=      5-min Rain = 0
KMD1 121058Z 00000KT M04/M10 A303 RMK A01 T10381095  RH  064%=      5-min Rain = 0
KMD1 121059Z 00000KT M04/M10 A303 RMK A01 T10391096  RH  064%=      5-min Rain = 0
KMD1 121100Z 00000KT M04/M10 A303 RMK A01 T10401096  RH  065%=      5-min Rain = 0
KMD1 121101Z 02002KT M04/M10 A303 RMK A01 T10411096  RH  065%=      5-min Rain = 0
KMD1 121102Z 02001KT M04/M10 A303 RMK A01 T10421096  RH  066%=      5-min Rain = 0
KMD1 121103Z 02001KT M04/M09 A303 RMK A01 T10411092  RH  067%=      5-min Rain = 0
KMD1 121104Z 34002KT M04/M09 A3029 RMK A01 T10381091  RH  067%=      5-min Rain = 0
KMD1 121105Z 01002KT M04/M09 A3029 RMK A01 T10381092  RH  066%=      5-min Rain = 0
KMD1 121106Z 00003KT M04/M09 A303 RMK A01 T10381092  RH  066%=      5-min Rain = 0
KMD1 121107Z 36003KT M04/M09 A303 RMK A01 T10381092  RH  066%=      5-min Rain = 0
KMD1 121108Z 01003KT M04/M09 A303 RMK A01 T10381092  RH  066%=      5-min Rain = 0
KMD1 121109Z 01003KT M04/M09 A303 RMK A01 T10401092  RH  067%=      5-min Rain = 0
KMD1 121110Z 35002KT M04/M09 A303 RMK A01 T10401092  RH  067%=      5-min Rain = 0
KMD1 121111Z 34002KT M04/M09 A303 RMK A01 T10391091  RH  067%=      5-min Rain = 0
KMD1 121112Z 34002KT M04/M09 A303 RMK A01 T10381090  RH  067%=      5-min Rain = 0
KMD1 121113Z 33003KT M04/M09 A303 RMK A01 T10381091  RH  067%=      5-min Rain = 0
KMD1 121114Z 33003KT M04/M09 A303 RMK A01 T10381091  RH  066%=      5-min Rain = 0
KMD1 121115Z 32003KT M04/M09 A303 RMK A01 T10371092  RH  066%=      5-min Rain = 0
KMD1 121116Z 31003KT M04/M09 A303 RMK A01 T10381094  RH  065%=      5-min Rain = 0
KMD1 121117Z 31002KT M04/M09 A303 RMK A01 T10381094  RH  065%=      5-min Rain = 0
KMD1 121118Z 31003KT M04/M10 A303 RMK A01 T10381095  RH  065%=      5-min Rain = 0
KMD1 121119Z 30002KT M04/M09 A303 RMK A01 T10371094  RH  065%=      5-min Rain = 0
KMD1 121120Z 30002KT M04/M10 A303 RMK A01 T10371095  RH  064%=      5-min Rain = 0
KMD1 121121Z 29003KT M04/M10 A303 RMK A01 T10361095  RH  063%=      5-min Rain = 0
KMD1 121122Z 29002KT M04/M10 A303 RMK A01 T10351095  RH  063%=      5-min Rain = 0
KMD1 121123Z 29002KT M03/M10 A303 RMK A01 T10341095  RH  063%=      5-min Rain = 0
KMD1 121124Z 29003KT M03/M09 A303 RMK A01 T10331094  RH  062%=      5-min Rain = 0
KMD1 121125Z 29003KT M03/M09 A303 RMK A01 T10321094  RH  062%=      5-min Rain = 0
KMD1 121126Z 28003KT M03/M09 A303 RMK A01 T10301094  RH  061%=      5-min Rain = 0
KMD1 121127Z 28003KT M03/M09 A3031 RMK A01 T10301094  RH  061%=      5-min Rain = 0
KMD1 121128Z 28003KT M03/M09 A3031 RMK A01 T10301094  RH  061%=      5-min Rain = 0
KMD1 121129Z 28003KT M03/M09 A3031 RMK A01 T10291094  RH  061%=      5-min Rain = 0
KMD1 121130Z 27002KT M03/M09 A3031 RMK A01 T10291094  RH  061%=      5-min Rain = 0
KMD1 121131Z 26002KT M03/M09 A3031 RMK A01 T10291093  RH  061%=      5-min Rain = 0
KMD1 121132Z 27002KT M03/M09 A3031 RMK A01 T10291093  RH  061%=      5-min Rain = 0
KMD1 121133Z 30003KT M03/M09 A3031 RMK A01 T10291093  RH  062%=      5-min Rain = 0
KMD1 121134Z 28002KT M03/M09 A3031 RMK A01 T10291093  RH  061%=      5-min Rain = 0
KMD1 121135Z 24002KT M03/M09 A3031 RMK A01 T10281092  RH  061%=      5-min Rain = 0
KMD1 121136Z 24002KT M03/M09 A3031 RMK A01 T10271092  RH  061%=      5-min Rain = 0
KMD1 121137Z 27001KT M03/M09 A303 RMK A01 T10271093  RH  061%=      5-min Rain = 0
KMD1 121138Z 30001KT M03/M09 A303 RMK A01 T10291093  RH  061%=      5-min Rain = 0
KMD1 121139Z 27001KT M03/M09 A303 RMK A01 T10301093  RH  062%=      5-min Rain = 0
KMD1 121140Z 27001KT M03/M10 A303 RMK A01 T10321096  RH  061%=      5-min Rain = 0
KMD1 121141Z 29001KT M04/M10 A303 RMK A01 T10361099  RH  061%=      5-min Rain = 0
KMD1 121142Z 34001KT M04/M10 A303 RMK A01 T10381099  RH  063%=      5-min Rain = 0
KMD1 121143Z 31002KT M04/M10 A303 RMK A01 T10391096  RH  064%=      5-min Rain = 0
KMD1 121144Z 29002KT M04/M09 A303 RMK A01 T10371094  RH  065%=      5-min Rain = 0
KMD1 121145Z 29002KT M04/M09 A303 RMK A01 T10351093  RH  064%=      5-min Rain = 0
KMD1 121146Z 30002KT M04/M10 A303 RMK A01 T10351096  RH  063%=      5-min Rain = 0
KMD1 121147Z 30002KT M04/M10 A303 RMK A01 T10371097  RH  063%=      5-min Rain = 0
KMD1 121148Z 30002KT M04/M10 A303 RMK A01 T10381097  RH  063%=      5-min Rain = 0
KMD1 121149Z 30001KT M04/M10 A303 RMK A01 T10391097  RH  064%=      5-min Rain = 0
KMD1 121150Z 30000KT M04/M10 A303 RMK A01 T10391097  RH  064%=      5-min Rain = 0
KMD1 121151Z 00000KT M04/M10 A303 RMK A01 T10401096  RH  065%=      5-min Rain = 0
KMD1 121152Z 24000KT M04/M10 A303 RMK A01 T10411097  RH  065%=      5-min Rain = 0
KMD1 121153Z 22000KT M04/M10 A303 RMK A01 T10421095  RH  066%=      5-min Rain = 0
KMD1 121154Z 25002KT M04/M10 A303 RMK A01 T10421095  RH  067%=      5-min Rain = 0
KMD1 121155Z 23001KT M04/M09 A303 RMK A01 T10411094  RH  067%=      5-min Rain = 0
KMD1 121156Z 20000KT M04/M09 A303 RMK A01 T10401094  RH  066%=      5-min Rain = 0
KMD1 121157Z 23000KT M04/M09 A303 RMK A01 T10401094  RH  066%=      5-min Rain = 0
KMD1 121158Z 23000KT M04/M09 A303 RMK A01 T10411094  RH  066%=      5-min Rain = 0
KMD1 121159Z 21001KT M04/M10 A303 RMK A01 T10411095  RH  066%=      5-min Rain = 0
KMD1 121200Z 22001KT M04/M10 A303 RMK A01 T10411095  RH  066%=      5-min Rain = 0
KMD1 121201Z 22001KT M04/M09 A303 RMK A01 T10421094  RH  067%=      5-min Rain = 0
KMD1 121202Z 21001KT M04/M09 A3029 RMK A01 T10411094  RH  067%=      5-min Rain = 0
KMD1 121203Z 24001KT M04/M10 A3029 RMK A01 T10411095  RH  066%=      5-min Rain = 0
KMD1 121204Z 22001KT M04/M10 A3029 RMK A01 T10411095  RH  066%=      5-min Rain = 0
KMD1 121205Z 25001KT M04/M10 A3029 RMK A01 T10411095  RH  066%=      5-min Rain = 0
KMD1 121206Z 25001KT M04/M10 A3029 RMK A01 T10401095  RH  066%=      5-min Rain = 0
KMD1 121207Z 26001KT M04/M10 A3029 RMK A01 T10421098  RH  065%=      5-min Rain = 0
KMD1 121208Z 26001KT M04/M10 A3029 RMK A01 T10431099  RH  065%=      5-min Rain = 0
KMD1 121209Z 28002KT M05/M10 A3029 RMK A01 T10461102  RH  065%=      5-min Rain = 0
KMD1 121210Z 28002KT M05/M10 A3029 RMK A01 T10481103  RH  066%=      5-min Rain = 0
KMD1 121211Z 28002KT M05/M10 A3029 RMK A01 T10491101  RH  067%=      5-min Rain = 0
KMD1 121212Z 28002KT M05/M10 A303 RMK A01 T10501101  RH  067%=      5-min Rain = 0
KMD1 121213Z 27002KT M05/M10 A3029 RMK A01 T10511103  RH  067%=      5-min Rain = 0
KMD1 121214Z 25002KT M05/M11 A3029 RMK A01 T10541106  RH  067%=      5-min Rain = 0
KMD1 121215Z 26002KT M06/M11 A3029 RMK A01 T10561105  RH  068%=      5-min Rain = 0
KMD1 121216Z 26002KT M06/M10 A3029 RMK A01 T10561101  RH  070%=      5-min Rain = 0
KMD1 121217Z 26002KT M06/M10 A3029 RMK A01 T10551100  RH  071%=      5-min Rain = 0
KMD1 121218Z 26002KT M05/M10 A303 RMK A01 T10541099  RH  071%=      5-min Rain = 0
KMD1 121219Z 24003KT M05/M10 A303 RMK A01 T10541098  RH  071%=      5-min Rain = 0
KMD1 121220Z 24002KT M05/M10 A303 RMK A01 T10541099  RH  071%=      5-min Rain = 0
KMD1 121221Z 24002KT M05/M10 A303 RMK A01 T10531097  RH  071%=      5-min Rain = 0
KMD1 121222Z 24002KT M05/M10 A303 RMK A01 T10521097  RH  071%=      5-min Rain = 0
KMD1 121223Z 26001KT M05/M10 A303 RMK A01 T10511096  RH  071%=      5-min Rain = 0
KMD1 121224Z 27002KT M05/M10 A303 RMK A01 T10511097  RH  070%=      5-min Rain = 0
KMD1 121225Z 27002KT M05/M10 A303 RMK A01 T10521098  RH  070%=      5-min Rain = 0
KMD1 121226Z 28002KT M05/M10 A303 RMK A01 T10531099  RH  070%=      5-min Rain = 0
KMD1 121227Z 28002KT M05/M10 A303 RMK A01 T10531100  RH  070%=      5-min Rain = 0
KMD1 121228Z 28002KT M05/M10 A303 RMK A01 T10531099  RH  070%=      5-min Rain = 0
KMD1 121229Z 29003KT M05/M10 A303 RMK A01 T10521099  RH  070%=      5-min Rain = 0
KMD1 121230Z 28003KT M05/M10 A303 RMK A01 T10531102  RH  068%=      5-min Rain = 0
KMD1 121231Z 29002KT M06/M11 A303 RMK A01 T10561107  RH  068%=      5-min Rain = 0
KMD1 121232Z 30002KT M06/M11 A303 RMK A01 T10591108  RH  068%=      5-min Rain = 0
KMD1 121233Z 35001KT M06/M11 A303 RMK A01 T10621109  RH  069%=      5-min Rain = 0
KMD1 121234Z 31002KT M06/M11 A303 RMK A01 T10621106  RH  071%=      5-min Rain = 0
KMD1 121235Z 30002KT M06/M10 A303 RMK A01 T10631102  RH  073%=      5-min Rain = 0
KMD1 121236Z 31002KT M06/M10 A303 RMK A01 T10631100  RH  075%=      5-min Rain = 0
KMD1 121237Z 32003KT M06/M10 A303 RMK A01 T10631098  RH  076%=      5-min Rain = 0
KMD1 121238Z 32003KT M06/M10 A303 RMK A01 T10631096  RH  077%=      5-min Rain = 0
KMD1 121239Z 32003KT M06/M10 A303 RMK A01 T10631095  RH  078%=      5-min Rain = 0
KMD1 121240Z 32003KT M06/M09 A303 RMK A01 T10621093  RH  079%=      5-min Rain = 0
KMD1 121241Z 31003KT M06/M09 A303 RMK A01 T10611092  RH  079%=      5-min Rain = 0
KMD1 121242Z 31003KT M06/M09 A303 RMK A01 T10611093  RH  078%=      5-min Rain = 0
KMD1 121243Z 31002KT M06/M09 A3031 RMK A01 T10611093  RH  078%=      5-min Rain = 0
KMD1 121244Z 27001KT M06/M09 A3031 RMK A01 T10611094  RH  078%=      5-min Rain = 0
KMD1 121245Z 24002KT M06/M10 A3031 RMK A01 T10621095  RH  077%=      5-min Rain = 0
KMD1 121246Z 25001KT M06/M10 A3031 RMK A01 T10611095  RH  076%=      5-min Rain = 0
KMD1 121247Z 26000KT M06/M10 A303 RMK A01 T10601096  RH  076%=      5-min Rain = 0
KMD1 121248Z 24000KT M06/M10 A303 RMK A01 T10601097  RH  075%=      5-min Rain = 0
KMD1 121249Z 23001KT M06/M10 A3031 RMK A01 T10591096  RH  075%=      5-min Rain = 0
KMD1 121250Z 22002KT M06/M10 A3031 RMK A01 T10571095  RH  075%=      5-min Rain = 0
KMD1 121251Z 24002KT M06/M10 A3031 RMK A01 T10571095  RH  074%=      5-min Rain = 0
KMD1 121252Z 24002KT M06/M09 A3031 RMK A01 T10561093  RH  076%=      5-min Rain = 0
KMD1 121253Z 24002KT M06/M09 A3031 RMK A01 T10571092  RH  076%=      5-min Rain = 0
KMD1 121254Z 23002KT M06/M10 A3031 RMK A01 T10591095  RH  076%=      5-min Rain = 0
KMD1 121255Z 23002KT M06/M10 A3031 RMK A01 T10601095  RH  076%=      5-min Rain = 0
KMD1 121256Z 23003KT M06/M09 A3031 RMK A01 T10611094  RH  077%=      5-min Rain = 0
KMD1 121257Z 22004KT M06/M09 A3031 RMK A01 T10611093  RH  078%=      5-min Rain = 0
KMD1 121258Z 22004KT M06/M09 A3031 RMK A01 T10621093  RH  078%=      5-min Rain = 0
KMD1 121259Z 23005KT M06/M09 A3031 RMK A01 T10611093  RH  078%=      5-min Rain = 0
KMD1 121300Z 23004KT M06/M09 A3031 RMK A01 T10621094  RH  078%=      5-min Rain = 0
KMD1 121301Z 23005KT M06/M09 A3031 RMK A01 T10611094  RH  078%=      5-min Rain = 0
KMD1 121302Z 23005KT M06/M09 A3031 RMK A01 T10611093  RH  078%=      5-min Rain = 0
KMD1 121303Z 23005KT M06/M09 A3031 RMK A01 T10611094  RH  078%=      5-min Rain = 0
KMD1 121304Z 24005KT M06/M09 A3031 RMK A01 T10601093  RH  078%=      5-min Rain = 0
KMD1 121305Z 24005KT M06/M09 A3031 RMK A01 T10601093  RH  077%=      5-min Rain = 0
KMD1 121306Z 24005KT M06/M09 A3032 RMK A01 T10591093  RH  077%=      5-min Rain = 0
KMD1 121307Z 24005KT M06/M09 A3032 RMK A01 T10591093  RH  077%=      5-min Rain = 0
KMD1 121308Z 24004KT M06/M09 A3032 RMK A01 T10581093  RH  077%=      5-min Rain = 0
KMD1 121309Z 25003KT M06/M09 A3032 RMK A01 T10581093  RH  076%=      5-min Rain = 0
KMD1 121310Z 24003KT M06/M10 A3032 RMK A01 T10591096  RH  075%=      5-min Rain = 0
KMD1 121311Z 24003KT M06/M10 A3032 RMK A01 T10621100  RH  074%=      5-min Rain = 0
KMD1 121312Z 24003KT M06/M10 A3032 RMK A01 T10631100  RH  075%=      5-min Rain = 0
KMD1 121313Z 25004KT M06/M10 A3032 RMK A01 T10641100  RH  076%=      5-min Rain = 0
KMD1 121314Z 26004KT M07/M10 A3032 RMK A01 T10651098  RH  077%=      5-min Rain = 0
KMD1 121315Z 27004KT M07/M10 A3032 RMK A01 T10651098  RH  077%=      5-min Rain = 0
KMD1 121316Z 27004KT M07/M10 A3032 RMK A01 T10661100  RH  077%=      5-min Rain = 0
KMD1 121317Z 27004KT M07/M10 A3032 RMK A01 T10671099  RH  078%=      5-min Rain = 0
KMD1 121318Z 26004KT M07/M10 A3032 RMK A01 T10671098  RH  078%=      5-min Rain = 0
KMD1 121319Z 27003KT M07/M10 A3032 RMK A01 T10661098  RH  078%=      5-min Rain = 0
KMD1 121320Z 27003KT M07/M10 A3032 RMK A01 T10651097  RH  078%=      5-min Rain = 0
KMD1 121321Z 26004KT M06/M10 A3032 RMK A01 T10641097  RH  078%=      5-min Rain = 0
KMD1 121322Z 26004KT M06/M10 A3032 RMK A01 T10631096  RH  077%=      5-min Rain = 0
KMD1 121323Z 26004KT M06/M10 A3032 RMK A01 T10621096  RH  077%=      5-min Rain = 0
KMD1 121324Z 25004KT M06/M10 A3032 RMK A01 T10611096  RH  076%=      5-min Rain = 0
KMD1 121325Z 25005KT M06/M10 A3032 RMK A01 T10601096  RH  076%=      5-min Rain = 0
KMD1 121326Z 25004KT M06/M10 A3032 RMK A01 T10591096  RH  075%=      5-min Rain = 0
KMD1 121327Z 26004KT M06/M10 A3032 RMK A01 T10591096  RH  075%=      5-min Rain = 0
KMD1 121328Z 27003KT M06/M10 A3032 RMK A01 T10581096  RH  075%=      5-min Rain = 0
KMD1 121329Z 27003KT M06/M10 A3032 RMK A01 T10591098  RH  074%=      5-min Rain = 0
KMD1 121330Z 27004KT M06/M10 A3032 RMK A01 T10601100  RH  073%=      5-min Rain = 0
KMD1 121331Z 28003KT M06/M10 A3032 RMK A01 T10601099  RH  074%=      5-min Rain = 0
KMD1 121332Z 28004KT M06/M10 A3032 RMK A01 T10621102  RH  073%=      5-min Rain = 0
KMD1 121333Z 28004KT M06/M10 A3032 RMK A01 T10631103  RH  074%=      5-min Rain = 0
KMD1 121334Z 28004KT M06/M10 A3032 RMK A01 T10641101  RH  075%=      5-min Rain = 0
KMD1 121335Z 29004KT M07/M10 A3032 RMK A01 T10651103  RH  074%=      5-min Rain = 0
KMD1 121336Z 28004KT M07/M10 A3032 RMK A01 T10661104  RH  075%=      5-min Rain = 0
KMD1 121337Z 28004KT M07/M10 A3032 RMK A01 T10661102  RH  076%=      5-min Rain = 0
KMD1 121338Z 28003KT M07/M10 A3032 RMK A01 T10661102  RH  076%=      5-min Rain = 0
KMD1 121339Z 28003KT M07/M10 A3033 RMK A01 T10661101  RH  076%=      5-min Rain = 0
KMD1 121340Z 28003KT M06/M10 A3033 RMK A01 T10641099  RH  076%=      5-min Rain = 0
KMD1 121341Z 27003KT M06/M10 A3033 RMK A01 T10631099  RH  076%=      5-min Rain = 0
KMD1 121342Z 28003KT M06/M10 A3033 RMK A01 T10631100  RH  075%=      5-min Rain = 0
KMD1 121343Z 28003KT M06/M10 A3032 RMK A01 T10621098  RH  075%=      5-min Rain = 0
KMD1 121344Z 27002KT M06/M10 A3032 RMK A01 T10611097  RH  075%=      5-min Rain = 0
KMD1 121345Z 27002KT M06/M10 A3032 RMK A01 T10601097  RH  075%=      5-min Rain = 0
KMD1 121346Z 26002KT M06/M10 A3032 RMK A01 T10591097  RH  075%=      5-min Rain = 0
KMD1 121347Z 25002KT M06/M10 A3032 RMK A01 T10581097  RH  074%=      5-min Rain = 0
KMD1 121348Z 25002KT M06/M10 A3032 RMK A01 T10581097  RH  074%=      5-min Rain = 0
KMD1 121349Z 26002KT M06/M10 A3032 RMK A01 T10581097  RH  074%=      5-min Rain = 0
KMD1 121350Z 26002KT M06/M10 A3032 RMK A01 T10581097  RH  074%=      5-min Rain = 0
KMD1 121351Z 27001KT M06/M10 A3032 RMK A01 T10581097  RH  074%=      5-min Rain = 0
KMD1 121352Z 27001KT M06/M10 A3032 RMK A01 T10581097  RH  074%=      5-min Rain = 0
KMD1 121353Z 26001KT M06/M10 A3032 RMK A01 T10571097  RH  074%=      5-min Rain = 0
KMD1 121354Z 26000KT M06/M10 A3032 RMK A01 T10571096  RH  074%=      5-min Rain = 0
KMD1 121355Z 26001KT M06/M10 A3032 RMK A01 T10561095  RH  074%=      5-min Rain = 0
KMD1 121356Z 26001KT M06/M09 A3032 RMK A01 T10551094  RH  074%=      5-min Rain = 0
KMD1 121357Z 26001KT M05/M09 A3032 RMK A01 T10541094  RH  073%=      5-min Rain = 0
KMD1 121358Z 26001KT M05/M10 A3032 RMK A01 T10541095  RH  073%=      5-min Rain = 0
KMD1 121359Z 25001KT M05/M10 A3032 RMK A01 T10541095  RH  073%=      5-min Rain = 0
KMD1 121400Z 25002KT M05/M10 A3032 RMK A01 T10531095  RH  073%=      5-min Rain = 0
KMD1 121401Z 24001KT M05/M10 A3032 RMK A01 T10531095  RH  073%=      5-min Rain = 0
KMD1 121402Z 25001KT M05/M09 A3032 RMK A01 T10531094  RH  073%=      5-min Rain = 0
KMD1 121403Z 25002KT M05/M09 A3032 RMK A01 T10531093  RH  073%=      5-min Rain = 0
KMD1 121404Z 25002KT M05/M09 A3032 RMK A01 T10531093  RH  073%=      5-min Rain = 0
KMD1 121405Z 24002KT M05/M09 A3032 RMK A01 T10531092  RH  074%=      5-min Rain = 0
KMD1 121406Z 24002KT M05/M09 A3032 RMK A01 T10531092  RH  074%=      5-min Rain = 0
KMD1 121407Z 24002KT M05/M09 A3032 RMK A01 T10531091  RH  075%=      5-min Rain = 0
KMD1 121408Z 24002KT M05/M09 A3032 RMK A01 T10531091  RH  075%=      5-min Rain = 0
KMD1 121409Z 24002KT M05/M09 A3033 RMK A01 T10531090  RH  075%=      5-min Rain = 0
KMD1 121410Z 24003KT M05/M09 A3033 RMK A01 T10531090  RH  075%=      5-min Rain = 0
KMD1 121411Z 24003KT M05/M09 A3033 RMK A01 T10531090  RH  075%=      5-min Rain = 0
KMD1 121412Z 25003KT M05/M09 A3033 RMK A01 T10531090  RH  075%=      5-min Rain = 0
KMD1 121413Z 25003KT M05/M09 A3033 RMK A01 T10531090  RH  075%=      5-min Rain = 0
KMD1 121414Z 25003KT M05/M09 A3033 RMK A01 T10531090  RH  075%=      5-min Rain = 0
KMD1 121415Z 25003KT M05/M09 A3033 RMK A01 T10531090  RH  075%=      5-min Rain = 0
KMD1 121416Z 24003KT M05/M09 A3033 RMK A01 T10521089  RH  076%=      5-min Rain = 0
KMD1 121417Z 25003KT M05/M09 A3033 RMK A01 T10521088  RH  076%=      5-min Rain = 0
KMD1 121418Z 26003KT M05/M09 A3033 RMK A01 T10511088  RH  075%=      5-min Rain = 0
KMD1 121419Z 26002KT M05/M09 A3033 RMK A01 T10501087  RH  075%=      5-min Rain = 0
KMD1 121420Z 26002KT M05/M09 A3033 RMK A01 T10491087  RH  075%=      5-min Rain = 0
KMD1 121421Z 26003KT M05/M09 A3033 RMK A01 T10491086  RH  075%=      5-min Rain = 0
KMD1 121422Z 26003KT M05/M09 A3033 RMK A01 T10481086  RH  075%=      5-min Rain = 0
KMD1 121423Z 26003KT M05/M09 A3033 RMK A01 T10471086  RH  074%=      5-min Rain = 0
KMD1 121424Z 26003KT M05/M09 A3033 RMK A01 T10471088  RH  073%=      5-min Rain = 0
KMD1 121425Z 26004KT M05/M09 A3033 RMK A01 T10461088  RH  073%=      5-min Rain = 0
KMD1 121426Z 25003KT M05/M09 A3033 RMK A01 T10461088  RH  072%=      5-min Rain = 0
KMD1 121427Z 25003KT M05/M09 A3033 RMK A01 T10451087  RH  072%=      5-min Rain = 0
KMD1 121428Z 25003KT M04/M09 A3034 RMK A01 T10441087  RH  072%=      5-min Rain = 0
KMD1 121429Z 25003KT M04/M09 A3034 RMK A01 T10431087  RH  071%=      5-min Rain = 0
KMD1 121430Z 25003KT M04/M09 A3034 RMK A01 T10431088  RH  071%=      5-min Rain = 0
KMD1 121431Z 26003KT M04/M09 A3034 RMK A01 T10431088  RH  071%=      5-min Rain = 0
KMD1 121432Z 25003KT M04/M09 A3034 RMK A01 T10421088  RH  071%=      5-min Rain = 0
KMD1 121433Z 25003KT M04/M09 A3034 RMK A01 T10421087  RH  070%=      5-min Rain = 0
KMD1 121434Z 24002KT M04/M09 A3034 RMK A01 T10411087  RH  070%=      5-min Rain = 0
KMD1 121435Z 24002KT M04/M09 A3034 RMK A01 T10401086  RH  070%=      5-min Rain = 0
KMD1 121436Z 24002KT M04/M09 A3034 RMK A01 T10401086  RH  070%=      5-min Rain = 0
KMD1 121437Z 24002KT M04/M09 A3034 RMK A01 T10391085  RH  070%=      5-min Rain = 0
KMD1 121438Z 24003KT M04/M09 A3034 RMK A01 T10371085  RH  070%=      5-min Rain = 0
KMD1 121439Z 23003KT M04/M09 A3034 RMK A01 T10371085  RH  069%=      5-min Rain = 0
KMD1 121440Z 24003KT M04/M09 A3034 RMK A01 T10371085  RH  070%=      5-min Rain = 0
KMD1 121441Z 24004KT M04/M09 A3034 RMK A01 T10371085  RH  069%=      5-min Rain = 0
KMD1 121442Z 23003KT M04/M09 A3034 RMK A01 T10361085  RH  069%=      5-min Rain = 0
KMD1 121443Z 23003KT M04/M08 A3034 RMK A01 T10361084  RH  069%=      5-min Rain = 0
KMD1 121444Z 23003KT M04/M08 A3034 RMK A01 T10351083  RH  069%=      5-min Rain = 0
KMD1 121445Z 23003KT M04/M08 A3034 RMK A01 T10351083  RH  070%=      5-min Rain = 0
KMD1 121446Z 23002KT M03/M08 A3034 RMK A01 T10341081  RH  070%=      5-min Rain = 0
KMD1 121447Z 23002KT M03/M08 A3034 RMK A01 T10331080  RH  070%=      5-min Rain = 0
KMD1 121448Z 22002KT M03/M08 A3034 RMK A01 T10331080  RH  070%=      5-min Rain = 0
KMD1 121449Z 23002KT M03/M08 A3034 RMK A01 T10321079  RH  070%=      5-min Rain = 0
KMD1 121450Z 24002KT M03/M08 A3034 RMK A01 T10301079  RH  069%=      5-min Rain = 0
KMD1 121451Z 23003KT M03/M08 A3034 RMK A01 T10291082  RH  067%=      5-min Rain = 0
KMD1 121452Z 23002KT M03/M08 A3034 RMK A01 T10291083  RH  066%=      5-min Rain = 0
KMD1 121453Z 22003KT M03/M08 A3034 RMK A01 T10281081  RH  067%=      5-min Rain = 0
KMD1 121454Z 22003KT M03/M08 A3034 RMK A01 T10271080  RH  067%=      5-min Rain = 0
KMD1 121455Z 22003KT M03/M08 A3034 RMK A01 T10261079  RH  067%=      5-min Rain = 0
KMD1 121456Z 22002KT M03/M08 A3034 RMK A01 T10251079  RH  066%=      5-min Rain = 0
KMD1 121457Z 22002KT M02/M08 A3034 RMK A01 T10241080  RH  066%=      5-min Rain = 0
KMD1 121458Z 21002KT M02/M08 A3034 RMK A01 T10231080  RH  065%=      5-min Rain = 0
KMD1 121459Z 23002KT M02/M08 A3034 RMK A01 T10221081  RH  064%=      5-min Rain = 0
KMD1 121500Z 28001KT M02/M08 A3034 RMK A01 T10211082  RH  063%=      5-min Rain = 0
KMD1 121501Z 00000KT M02/M08 A3034 RMK A01 T10201082  RH  063%=      5-min Rain = 0
KMD1 121502Z 22001KT M02/M08 A3034 RMK A01 T10191082  RH  062%=      5-min Rain = 0
KMD1 121503Z 25001KT M02/M08 A3034 RMK A01 T10181083  RH  061%=      5-min Rain = 0
KMD1 121504Z 28000KT M02/M09 A3034 RMK A01 T10171085  RH  060%=      5-min Rain = 0
KMD1 121505Z 22000KT M02/M09 A3034 RMK A01 T10161086  RH  059%=      5-min Rain = 0
KMD1 121506Z 28001KT M01/M08 A3034 RMK A01 T10141084  RH  059%=      5-min Rain = 0
KMD1 121507Z 31000KT M01/M08 A3034 RMK A01 T10131083  RH  059%=      5-min Rain = 0
KMD1 121508Z 00000KT M01/M08 A3034 RMK A01 T10121082  RH  059%=      5-min Rain = 0
KMD1 121509Z 33000KT M01/M08 A3034 RMK A01 T10101082  RH  058%=      5-min Rain = 0
KMD1 121510Z 34002KT M01/M08 A3034 RMK A01 T10091081  RH  058%=      5-min Rain = 0
KMD1 121511Z 35005KT M01/M09 A3034 RMK A01 T10081087  RH  055%=      5-min Rain = 0
KMD1 121512Z 36006KT M01/M09 A3034 RMK A01 T10061091  RH  052%=      5-min Rain = 0
KMD1 121513Z 34005KT M00/M09 A3034 RMK A01 T10031092  RH  051%=      5-min Rain = 0
KMD1 121514Z 34005KT M00/M09 A3034 RMK A01 T10021094  RH  050%=      5-min Rain = 0
KMD1 121515Z 35004KT M00/M09 A3034 RMK A01 T10021094  RH  050%=      5-min Rain = 0
KMD1 121516Z 35003KT M00/M09 A3034 RMK A01 T10011093  RH  050%=      5-min Rain = 0
KMD1 121517Z 33003KT 00/M09 A3034 RMK A01 T00011090  RH  050%=      5-min Rain = 0
KMD1 121518Z 35002KT 00/M09 A3034 RMK A01 T00031092  RH  049%=      5-min Rain = 0
KMD1 121519Z 36003KT 00/M09 A3034 RMK A01 T00031094  RH  048%=      5-min Rain = 0
KMD1 121520Z 01004KT 00/M09 A3034 RMK A01 T00041094  RH  048%=      5-min Rain = 0
KMD1 121521Z 34003KT 01/M09 A3034 RMK A01 T00051093  RH  048%=      5-min Rain = 0
KMD1 121522Z 33003KT 01/M09 A3034 RMK A01 T00051094  RH  047%=      5-min Rain = 0
KMD1 121523Z 34002KT 01/M09 A3035 RMK A01 T00061093  RH  047%=      5-min Rain = 0
KMD1 121524Z 35003KT 01/M09 A3035 RMK A01 T00081091  RH  048%=      5-min Rain = 0
KMD1 121525Z 36005KT 01/M09 A3035 RMK A01 T00101092  RH  046%=      5-min Rain = 0
KMD1 121526Z 00005KT 01/M10 A3035 RMK A01 T00111095  RH  045%=      5-min Rain = 0
KMD1 121527Z 33004KT 01/M10 A3035 RMK A01 T00111097  RH  044%=      5-min Rain = 0
KMD1 121528Z 33005KT 01/M10 A3035 RMK A01 T00121096  RH  044%=      5-min Rain = 0
KMD1 121529Z 33004KT 01/M10 A3035 RMK A01 T00131097  RH  044%=      5-min Rain = 0
KMD1 121530Z 35004KT 01/M10 A3035 RMK A01 T00141097  RH  043%=      5-min Rain = 0
KMD1 121531Z 34003KT 02/M10 A3035 RMK A01 T00151098  RH  043%=      5-min Rain = 0
KMD1 121532Z 33003KT 02/M10 A3035 RMK A01 T00161098  RH  042%=      5-min Rain = 0
KMD1 121533Z 32003KT 02/M10 A3035 RMK A01 T00161099  RH  042%=      5-min Rain = 0
KMD1 121534Z 34003KT 02/M10 A3035 RMK A01 T00181098  RH  042%=      5-min Rain = 0
KMD1 121535Z 31004KT 02/M10 A3035 RMK A01 T00201096  RH  042%=      5-min Rain = 0
KMD1 121536Z 34003KT 02/M10 A3035 RMK A01 T00211098  RH  041%=      5-min Rain = 0
KMD1 121537Z 34004KT 02/M10 A3035 RMK A01 T00211099  RH  041%=      5-min Rain = 0
KMD1 121538Z 34004KT 02/M10 A3035 RMK A01 T00221099  RH  040%=      5-min Rain = 0
KMD1 121539Z 34002KT 02/M10 A3035 RMK A01 T00231100  RH  040%=      5-min Rain = 0
KMD1 121540Z 31001KT 02/M10 A3035 RMK A01 T00231102  RH  039%=      5-min Rain = 0
KMD1 121541Z 32002KT 02/M10 A3035 RMK A01 T00231102  RH  039%=      5-min Rain = 0
KMD1 121542Z 32003KT 02/M10 A3035 RMK A01 T00241103  RH  039%=      5-min Rain = 0
KMD1 121543Z 00002KT 02/M10 A3035 RMK A01 T00241102  RH  039%=      5-min Rain = 0
KMD1 121544Z 32003KT 02/M10 A3035 RMK A01 T00241104  RH  038%=      5-min Rain = 0
KMD1 121545Z 33004KT 03/M10 A3035 RMK A01 T00251102  RH  038%=      5-min Rain = 0
KMD1 121546Z 33004KT 03/M10 A3035 RMK A01 T00271101  RH  038%=      5-min Rain = 0
KMD1 121547Z 32003KT 03/M10 A3035 RMK A01 T00281104  RH  037%=      5-min Rain = 0
KMD1 121548Z 34003KT 03/M11 A3035 RMK A01 T00281105  RH  037%=      5-min Rain = 0
KMD1 121549Z 34004KT 03/M10 A3035 RMK A01 T00281104  RH  037%=      5-min Rain = 0
KMD1 121550Z 32003KT 03/M11 A3035 RMK A01 T00281105  RH  037%=      5-min Rain = 0
KMD1 121551Z 31002KT 03/M10 A3035 RMK A01 T00281104  RH  037%=      5-min Rain = 0
KMD1 121552Z 32002KT 03/M10 A3035 RMK A01 T00291102  RH  037%=      5-min Rain = 0
KMD1 121553Z 32002KT 03/M10 A3035 RMK A01 T00311102  RH  037%=      5-min Rain = 0
KMD1 121554Z 36003KT 03/M10 A3035 RMK A01 T00321101  RH  037%=      5-min Rain = 0
KMD1 121555Z 02002KT 03/M10 A3035 RMK A01 T00331102  RH  037%=      5-min Rain = 0
KMD1 121556Z 02003KT 03/M10 A3035 RMK A01 T00341102  RH  036%=      5-min Rain = 0
KMD1 121557Z 03004KT 04/M10 A3035 RMK A01 T00361101  RH  036%=      5-min Rain = 0
KMD1 121558Z 03004KT 04/M11 A3035 RMK A01 T00361105  RH  035%=      5-min Rain = 0
KMD1 121559Z 02003KT 04/M11 A3035 RMK A01 T00351105  RH  035%=      5-min Rain = 0
KMD1 121600Z 02001KT 04/M11 A3035 RMK A01 T00351108  RH  034%=      5-min Rain = 0
KMD1 121601Z 01002KT 04/M11 A3035 RMK A01 T00351107  RH  034%=      5-min Rain = 0
KMD1 121602Z 34002KT 04/M10 A3035 RMK A01 T00371102  RH  035%=      5-min Rain = 0
KMD1 121603Z 35003KT 04/M10 A3035 RMK A01 T00391100  RH  035%=      5-min Rain = 0
KMD1 121604Z 33003KT 04/M10 A3035 RMK A01 T00401100  RH  035%=      5-min Rain = 0
KMD1 121605Z 33002KT 04/M10 A3035 RMK A01 T00401101  RH  035%=      5-min Rain = 0
KMD1 121606Z 22001KT 04/M10 A3035 RMK A01 T00411099  RH  035%=      5-min Rain = 0
KMD1 121607Z 34001KT 04/M10 A3035 RMK A01 T00431097  RH  035%=      5-min Rain = 0
KMD1 121608Z 04002KT 04/M10 A3035 RMK A01 T00441101  RH  034%=      5-min Rain = 0
KMD1 121609Z 00002KT 04/M10 A3035 RMK A01 T00441103  RH  034%=      5-min Rain = 0
KMD1 121610Z 34003KT 04/M10 A3035 RMK A01 T00441102  RH  034%=      5-min Rain = 0
KMD1 121611Z 31002KT 04/M10 A3035 RMK A01 T00431103  RH  034%=      5-min Rain = 0
KMD1 121612Z 26001KT 04/M10 A3035 RMK A01 T00421101  RH  035%=      5-min Rain = 0
KMD1 121613Z 25000KT 04/M10 A3035 RMK A01 T00421100  RH  035%=      5-min Rain = 0
KMD1 121614Z 23001KT 04/M10 A3035 RMK A01 T00431100  RH  034%=      5-min Rain = 0
KMD1 121615Z 19001KT 04/M10 A3035 RMK A01 T00441100  RH  034%=      5-min Rain = 0
KMD1 121616Z 22001KT 05/M10 A3035 RMK A01 T00461098  RH  034%=      5-min Rain = 0
KMD1 121617Z 21002KT 05/M10 A3035 RMK A01 T00471099  RH  034%=      5-min Rain = 0
KMD1 121618Z 25001KT 05/M10 A3035 RMK A01 T00471099  RH  034%=      5-min Rain = 0
KMD1 121619Z 20001KT 05/M10 A3035 RMK A01 T00481099  RH  034%=      5-min Rain = 0
KMD1 121620Z 22002KT 05/M10 A3035 RMK A01 T00481099  RH  034%=      5-min Rain = 0
KMD1 121621Z 25001KT 05/M10 A3035 RMK A01 T00481100  RH  033%=      5-min Rain = 0
KMD1 121622Z 19000KT 05/M10 A3035 RMK A01 T00471099  RH  034%=      5-min Rain = 0
KMD1 121623Z 18000KT 05/M10 A3035 RMK A01 T00481097  RH  034%=      5-min Rain = 0
KMD1 121624Z 20000KT 05/M10 A3035 RMK A01 T00501096  RH  034%=      5-min Rain = 0
KMD1 121625Z 25000KT 05/M10 A3035 RMK A01 T00521097  RH  033%=      5-min Rain = 0
KMD1 121626Z 20000KT 05/M09 A3035 RMK A01 T00531094  RH  034%=      5-min Rain = 0
KMD1 121627Z 25001KT 06/M09 A3035 RMK A01 T00551094  RH  033%=      5-min Rain = 0
KMD1 121628Z 01000KT 06/M10 A3035 RMK A01 T00561095  RH  033%=      5-min Rain = 0
KMD1 121629Z 08000KT 06/M10 A3035 RMK A01 T00571098  RH  032%=      5-min Rain = 0
KMD1 121630Z 03000KT 06/M10 A3035 RMK A01 T00571097  RH  032%=      5-min Rain = 0
KMD1 121631Z 03000KT 06/M10 A3035 RMK A01 T00591098  RH  031%=      5-min Rain = 0
KMD1 121632Z 00000KT 06/M10 A3035 RMK A01 T00591099  RH  031%=      5-min Rain = 0
KMD1 121633Z 02002KT 06/M10 A3035 RMK A01 T00591097  RH  032%=      5-min Rain = 0
KMD1 121634Z 03003KT 06/M10 A3035 RMK A01 T00571102  RH  031%=      5-min Rain = 0
KMD1 121635Z 04002KT 05/M10 A3035 RMK A01 T00541104  RH  031%=      5-min Rain = 0
KMD1 121636Z 07002KT 05/M10 A3035 RMK A01 T00531104  RH  031%=      5-min Rain = 0
KMD1 121637Z 06002KT 05/M10 A3035 RMK A01 T00531103  RH  031%=      5-min Rain = 0
KMD1 121638Z 15000KT 05/M10 A3035 RMK A01 T00531103  RH  031%=      5-min Rain = 0
KMD1 121639Z 14000KT 05/M10 A3035 RMK A01 T00531104  RH  031%=      5-min Rain = 0
KMD1 121640Z 15000KT 05/M10 A3035 RMK A01 T00541102  RH  032%=      5-min Rain = 0
KMD1 121641Z 12000KT 06/M10 A3035 RMK A01 T00551103  RH  031%=      5-min Rain = 0
KMD1 121642Z 19000KT 06/M10 A3035 RMK A01 T00551100  RH  032%=      5-min Rain = 0
KMD1 121643Z 13001KT 06/M10 A3035 RMK A01 T00581098  RH  032%=      5-min Rain = 0
KMD1 121644Z 08003KT 06/M10 A3035 RMK A01 T00601097  RH  031%=      5-min Rain = 0
KMD1 121645Z 04002KT 06/M10 A3035 RMK A01 T00611101  RH  030%=      5-min Rain = 0
KMD1 121646Z 02002KT 06/M11 A3035 RMK A01 T00621106  RH  029%=      5-min Rain = 0
KMD1 121647Z 06004KT 06/M10 A3035 RMK A01 T00611104  RH  030%=      5-min Rain = 0
KMD1 121648Z 08004KT 06/M10 A3035 RMK A01 T00611103  RH  030%=      5-min Rain = 0
KMD1 121649Z 09004KT 06/M11 A3035 RMK A01 T00611105  RH  029%=      5-min Rain = 0
KMD1 121650Z 07003KT 06/M11 A3035 RMK A01 T00601105  RH  029%=      5-min Rain = 0
KMD1 121651Z 08002KT 06/M11 A3035 RMK A01 T00601105  RH  030%=      5-min Rain = 0
KMD1 121652Z 05002KT 06/M11 A3035 RMK A01 T00601105  RH  029%=      5-min Rain = 0
KMD1 121653Z 13001KT 06/M11 A3035 RMK A01 T00591106  RH  029%=      5-min Rain = 0
KMD1 121654Z 12002KT 06/M10 A3035 RMK A01 T00621101  RH  030%=      5-min Rain = 0
KMD1 121655Z 10002KT 06/M10 A3035 RMK A01 T00641104  RH  029%=      5-min Rain = 0
KMD1 121656Z 05003KT 07/M10 A3035 RMK A01 T00651104  RH  029%=      5-min Rain = 0
KMD1 121657Z 03004KT 07/M10 A3035 RMK A01 T00651104  RH  029%=      5-min Rain = 0
KMD1 121658Z 02004KT 07/M11 A3035 RMK A01 T00651106  RH  028%=      5-min Rain = 0
KMD1 121659Z 08003KT 06/M11 A3035 RMK A01 T00631105  RH  029%=      5-min Rain = 0
KMD1 121700Z 09003KT 06/M11 A3035 RMK A01 T00641105  RH  029%=      5-min Rain = 0
KMD1 121701Z 10002KT 06/M11 A3035 RMK A01 T00641106  RH  028%=      5-min Rain = 0
KMD1 121702Z 05003KT 07/M10 A3035 RMK A01 T00661103  RH  029%=      5-min Rain = 0
KMD1 121703Z 36001KT 07/M11 A3035 RMK A01 T00671105  RH  028%=      5-min Rain = 0
KMD1 121704Z 32000KT 07/M11 A3035 RMK A01 T00671106  RH  028%=      5-min Rain = 0
KMD1 121705Z 29001KT 07/M11 A3035 RMK A01 T00681108  RH  027%=      5-min Rain = 0
KMD1 121706Z 26001KT 07/M11 A3035 RMK A01 T00691106  RH  028%=      5-min Rain = 0
KMD1 121707Z 26001KT 07/M11 A3035 RMK A01 T00691107  RH  027%=      5-min Rain = 0
KMD1 121708Z 28001KT 07/M11 A3035 RMK A01 T00691107  RH  027%=      5-min Rain = 0
KMD1 121709Z 17000KT 07/M11 A3035 RMK A01 T00691106  RH  028%=      5-min Rain = 0
KMD1 121710Z 25001KT 07/M10 A3034 RMK A01 T00701104  RH  028%=      5-min Rain = 0
KMD1 121711Z 24002KT 07/M11 A3034 RMK A01 T00701106  RH  027%=      5-min Rain = 0
KMD1 121712Z 10003KT 07/M11 A3034 RMK A01 T00701105  RH  028%=      5-min Rain = 0
KMD1 121713Z 09003KT 07/M10 A3034 RMK A01 T00711104  RH  027%=      5-min Rain = 0
KMD1 121714Z 08001KT 07/M11 A3034 RMK A01 T00721105  RH  027%=      5-min Rain = 0
KMD1 121715Z 12002KT 07/M10 A3034 RMK A01 T00721104  RH  027%=      5-min Rain = 0
KMD1 121716Z 14004KT 07/M10 A3034 RMK A01 T00741101  RH  028%=      5-min Rain = 0
KMD1 121717Z 15004KT 08/M10 A3034 RMK A01 T00751102  RH  027%=      5-min Rain = 0
KMD1 121718Z 16005KT 08/M10 A3034 RMK A01 T00751104  RH  027%=      5-min Rain = 0
KMD1 121719Z 15004KT 07/M10 A3034 RMK A01 T00741103  RH  027%=      5-min Rain = 0
KMD1 121720Z 16003KT 07/M10 A3034 RMK A01 T00741104  RH  027%=      5-min Rain = 0
KMD1 121721Z 18002KT 08/M10 A3033 RMK A01 T00751100  RH  028%=      5-min Rain = 0
KMD1 121722Z 20003KT 08/M10 A3033 RMK A01 T00771101  RH  027%=      5-min Rain = 0
KMD1 121723Z 21002KT 08/M10 A3033 RMK A01 T00771103  RH  027%=      5-min Rain = 0
KMD1 121724Z 21003KT 08/M10 A3033 RMK A01 T00771104  RH  026%=      5-min Rain = 0
KMD1 121725Z 16002KT 08/M11 A3033 RMK A01 T00751105  RH  027%=      5-min Rain = 0
KMD1 121726Z 14004KT 08/M11 A3033 RMK A01 T00761107  RH  026%=      5-min Rain = 0
KMD1 121727Z 13005KT 08/M11 A3033 RMK A01 T00771107  RH  026%=      5-min Rain = 0
KMD1 121728Z 12006KT 08/M11 A3033 RMK A01 T00771105  RH  026%=      5-min Rain = 0
KMD1 121729Z 14004KT 08/M11 A3033 RMK A01 T00771107  RH  026%=      5-min Rain = 0
KMD1 121730Z 13005KT 08/M11 A3032 RMK A01 T00771106  RH  026%=      5-min Rain = 0
KMD1 121731Z 13004KT 08/M11 A3032 RMK A01 T00781106  RH  026%=      5-min Rain = 0
KMD1 121732Z 11004KT 08/M10 A3032 RMK A01 T00791102  RH  027%=      5-min Rain = 0
KMD1 121733Z 13004KT 08/M11 A3032 RMK A01 T00811105  RH  026%=      5-min Rain = 0
KMD1 121734Z 17003KT 08/M10 A3032 RMK A01 T00811103  RH  026%=      5-min Rain = 0
KMD1 121735Z 19004KT 08/M10 A3032 RMK A01 T00811104  RH  026%=      5-min Rain = 0
KMD1 121736Z 18003KT 08/M10 A3032 RMK A01 T00811103  RH  026%=      5-min Rain = 0
KMD1 121737Z 08002KT 08/M10 A3032 RMK A01 T00821102  RH  026%=      5-min Rain = 0
KMD1 121738Z 06003KT 08/M10 A3032 RMK A01 T00831102  RH  026%=      5-min Rain = 0
KMD1 121739Z 06002KT 08/M11 A3032 RMK A01 T00811106  RH  025%=      5-min Rain = 0
KMD1 121740Z 13005KT 08/M10 A3032 RMK A01 T00791104  RH  026%=      5-min Rain = 0
KMD1 121741Z 12006KT 08/M11 A3032 RMK A01 T00801105  RH  026%=      5-min Rain = 0
KMD1 121742Z 10002KT 08/M11 A3032 RMK A01 T00801105  RH  026%=      5-min Rain = 0
KMD1 121743Z 08002KT 08/M10 A3032 RMK A01 T00791104  RH  026%=      5-min Rain = 0
KMD1 121744Z 15004KT 08/M10 A3032 RMK A01 T00811099  RH  027%=      5-min Rain = 0
KMD1 121745Z 16003KT 08/M10 A3032 RMK A01 T00821102  RH  026%=      5-min Rain = 0
KMD1 121746Z 10005KT 08/M10 A3032 RMK A01 T00841099  RH  026%=      5-min Rain = 0
KMD1 121747Z 11005KT 09/M10 A3032 RMK A01 T00851103  RH  025%=      5-min Rain = 0
KMD1 121748Z 09005KT 09/M10 A3032 RMK A01 T00851103  RH  025%=      5-min Rain = 0
KMD1 121749Z 08004KT 09/M10 A3031 RMK A01 T00851103  RH  025%=      5-min Rain = 0
KMD1 121750Z 08003KT 08/M10 A3031 RMK A01 T00841103  RH  025%=      5-min Rain = 0
KMD1 121751Z 06002KT 08/M11 A3031 RMK A01 T00831106  RH  025%=      5-min Rain = 0
KMD1 121752Z 07002KT 08/M11 A3031 RMK A01 T00811110  RH  025%=      5-min Rain = 0
KMD1 121753Z 15002KT 08/M11 A3031 RMK A01 T00791110  RH  025%=      5-min Rain = 0
KMD1 121754Z 17001KT 08/M11 A3031 RMK A01 T00791111  RH  025%=      5-min Rain = 0
KMD1 121755Z 14001KT 08/M11 A3031 RMK A01 T00801110  RH  025%=      5-min Rain = 0
KMD1 121756Z 30001KT 08/M11 A3031 RMK A01 T00811110  RH  024%=      5-min Rain = 0
KMD1 121757Z 29000KT 08/M10 A3031 RMK A01 T00821104  RH  026%=      5-min Rain = 0
KMD1 121758Z 13001KT 09/M11 A3031 RMK A01 T00861105  RH  025%=      5-min Rain = 0
KMD1 121759Z 10004KT 09/M11 A3031 RMK A01 T00871106  RH  024%=      5-min Rain = 0
KMD1 121800Z 10004KT 09/M11 A3031 RMK A01 T00891108  RH  024%=      5-min Rain = 0
KMD1 121801Z 11002KT 09/M11 A3031 RMK A01 T00881111  RH  023%=      5-min Rain = 0
KMD1 121802Z 15003KT 09/M11 A3031 RMK A01 T00881109  RH  024%=      5-min Rain = 0
KMD1 121803Z 12007KT 09/M11 A3031 RMK A01 T00921108  RH  023%=      5-min Rain = 0
KMD1 121804Z 12006KT 09/M11 A303 RMK A01 T00911114  RH  022%=      5-min Rain = 0
KMD1 121805Z 12006KT 09/M11 A303 RMK A01 T00891113  RH  023%=      5-min Rain = 0
KMD1 121806Z 12004KT 09/M11 A303 RMK A01 T00891112  RH  023%=      5-min Rain = 0
KMD1 121807Z 15005KT 09/M11 A303 RMK A01 T00911113  RH  022%=      5-min Rain = 0
KMD1 121808Z 13005KT 09/M12 A303 RMK A01 T00901117  RH  022%=      5-min Rain = 0
KMD1 121809Z 12004KT 09/M11 A303 RMK A01 T00891114  RH  023%=      5-min Rain = 0
KMD1 121810Z 12006KT 09/M11 A303 RMK A01 T00901112  RH  023%=      5-min Rain = 0
KMD1 121811Z 13004KT 09/M11 A303 RMK A01 T00901111  RH  023%=      5-min Rain = 0
KMD1 121812Z 12007KT 09/M11 A303 RMK A01 T00911111  RH  023%=      5-min Rain = 0
KMD1 121813Z 14006KT 09/M11 A303 RMK A01 T00921108  RH  023%=      5-min Rain = 0
KMD1 121814Z 11006KT 09/M11 A303 RMK A01 T00931111  RH  023%=      5-min Rain = 0
KMD1 121815Z 12004KT 09/M11 A3029 RMK A01 T00911113  RH  022%=      5-min Rain = 0
KMD1 121816Z 12004KT 09/M11 A3029 RMK A01 T00891114  RH  023%=      5-min Rain = 0
KMD1 121817Z 10003KT 09/M11 A3029 RMK A01 T00891111  RH  023%=      5-min Rain = 0
KMD1 121818Z 11005KT 09/M11 A3029 RMK A01 T00901110  RH  023%=      5-min Rain = 0
KMD1 121819Z 12003KT 09/M11 A3029 RMK A01 T00901113  RH  023%=      5-min Rain = 0
KMD1 121820Z 11002KT 09/M12 A3029 RMK A01 T00901115  RH  022%=      5-min Rain = 0
KMD1 121821Z 15000KT 09/M11 A3029 RMK A01 T00911114  RH  022%=      5-min Rain = 0
KMD1 121822Z 15001KT 09/M11 A3028 RMK A01 T00921112  RH  023%=      5-min Rain = 0
KMD1 121823Z 15002KT 09/M11 A3028 RMK A01 T00941112  RH  022%=      5-min Rain = 0
KMD1 121824Z 10008KT 10/M11 A3028 RMK A01 T00951107  RH  023%=      5-min Rain = 0
KMD1 121825Z 09004KT 10/M11 A3028 RMK A01 T00971105  RH  023%=      5-min Rain = 0
KMD1 121826Z 13008KT 10/M10 A3028 RMK A01 T00991101  RH  023%=      5-min Rain = 0
KMD1 121827Z 13008KT 10/M10 A3027 RMK A01 T01001103  RH  023%=      5-min Rain = 0
KMD1 121828Z 11005KT 10/M10 A3027 RMK A01 T00981104  RH  023%=      5-min Rain = 0
KMD1 121829Z 10003KT 10/M11 A3027 RMK A01 T00961109  RH  022%=      5-min Rain = 0
KMD1 121830Z 10002KT 09/M11 A3027 RMK A01 T00941109  RH  023%=      5-min Rain = 0
KMD1 121831Z 10005KT 09/M11 A3027 RMK A01 T00931110  RH  023%=      5-min Rain = 0
KMD1 121832Z 09007KT 09/M11 A3027 RMK A01 T00941108  RH  023%=      5-min Rain = 0
KMD1 121833Z 09004KT 09/M11 A3026 RMK A01 T00931110  RH  023%=      5-min Rain = 0
KMD1 121834Z 12004KT 09/M11 A3026 RMK A01 T00931110  RH  023%=      5-min Rain = 0
KMD1 121835Z 13004KT 09/M11 A3026 RMK A01 T00941108  RH  023%=      5-min Rain = 0
KMD1 121836Z 11004KT 10/M11 A3026 RMK A01 T00961108  RH  023%=      5-min Rain = 0
KMD1 121837Z 08004KT 10/M11 A3026 RMK A01 T00951110  RH  022%=      5-min Rain = 0
KMD1 121838Z 09003KT 09/M11 A3025 RMK A01 T00941110  RH  022%=      5-min Rain = 0
KMD1 121839Z 13004KT 09/M11 A3025 RMK A01 T00941106  RH  023%=      5-min Rain = 0
KMD1 121840Z 11007KT 10/M10 A3025 RMK A01 T00981102  RH  023%=      5-min Rain = 0
KMD1 121841Z 11007KT 10/M11 A3025 RMK A01 T01001109  RH  022%=      5-min Rain = 0
KMD1 121842Z 12007KT 10/M11 A3025 RMK A01 T00981111  RH  022%=      5-min Rain = 0
KMD1 121843Z 12005KT 10/M11 A3025 RMK A01 T00981110  RH  022%=      5-min Rain = 0
KMD1 121844Z 12004KT 10/M11 A3025 RMK A01 T00981110  RH  022%=      5-min Rain = 0
KMD1 121845Z 12005KT 10/M11 A3025 RMK A01 T00981107  RH  022%=      5-min Rain = 0
KMD1 121846Z 10003KT 10/M11 A3025 RMK A01 T00981110  RH  022%=      5-min Rain = 0
KMD1 121847Z 13002KT 10/M11 A3025 RMK A01 T00971112  RH  022%=      5-min Rain = 0
KMD1 121848Z 08005KT 10/M11 A3025 RMK A01 T00981109  RH  022%=      5-min Rain = 0
KMD1 121849Z 10006KT 10/M11 A3025 RMK A01 T01011110  RH  021%=      5-min Rain = 0
KMD1 121850Z 10004KT 10/M11 A3025 RMK A01 T01011110  RH  022%=      5-min Rain = 0
KMD1 121851Z 08007KT 10/M11 A3025 RMK A01 T01011111  RH  021%=      5-min Rain = 0
KMD1 121852Z 07006KT 10/M11 A3025 RMK A01 T01021110  RH  021%=      5-min Rain = 0
KMD1 121853Z 08005KT 10/M11 A3025 RMK A01 T01011111  RH  021%=      5-min Rain = 0
KMD1 121854Z 13005KT 10/M11 A3025 RMK A01 T01031106  RH  022%=      5-min Rain = 0
KMD1 121855Z 13002KT 11/M11 A3024 RMK A01 T01051111  RH  021%=      5-min Rain = 0
KMD1 121856Z 13004KT 11/M11 A3024 RMK A01 T01051112  RH  021%=      5-min Rain = 0
KMD1 121857Z 11003KT 11/M11 A3024 RMK A01 T01061110  RH  021%=      5-min Rain = 0
KMD1 121858Z 12002KT 11/M11 A3024 RMK A01 T01051112  RH  020%=      5-min Rain = 0
KMD1 121859Z 13004KT 11/M11 A3024 RMK A01 T01061110  RH  021%=      5-min Rain = 0
KMD1 121900Z 11005KT 11/M11 A3024 RMK A01 T01081108  RH  021%=      5-min Rain = 0
KMD1 121901Z 13004KT 11/M11 A3024 RMK A01 T01091111  RH  020%=      5-min Rain = 0
KMD1 121902Z 15004KT 11/M12 A3024 RMK A01 T01091115  RH  020%=      5-min Rain = 0
KMD1 121903Z 11003KT 11/M11 A3024 RMK A01 T01091111  RH  020%=      5-min Rain = 0
KMD1 121904Z 11005KT 11/M11 A3024 RMK A01 T01121107  RH  020%=      5-min Rain = 0
KMD1 121905Z 11005KT 11/M11 A3024 RMK A01 T01121110  RH  020%=      5-min Rain = 0
KMD1 121906Z 12006KT 11/M11 A3024 RMK A01 T01091110  RH  020%=      5-min Rain = 0
KMD1 121907Z 15006KT 11/M11 A3024 RMK A01 T01081110  RH  021%=      5-min Rain = 0
KMD1 121908Z 15004KT 11/M11 A3024 RMK A01 T01071110  RH  021%=      5-min Rain = 0
KMD1 121909Z 10004KT 11/M11 A3024 RMK A01 T01081111  RH  020%=      5-min Rain = 0
KMD1 121910Z 09007KT 11/M11 A3023 RMK A01 T01081112  RH  020%=      5-min Rain = 0
KMD1 121911Z 08006KT 11/M11 A3023 RMK A01 T01081112  RH  020%=      5-min Rain = 0
KMD1 121912Z 07004KT 11/M11 A3023 RMK A01 T01081110  RH  020%=      5-min Rain = 0
KMD1 121913Z 06004KT 11/M11 A3023 RMK A01 T01091112  RH  020%=      5-min Rain = 0
KMD1 121914Z 09009KT 11/M11 A3023 RMK A01 T01091111  RH  020%=      5-min Rain = 0
KMD1 121915Z 07008KT 11/M11 A3023 RMK A01 T01081112  RH  020%=      5-min Rain = 0
KMD1 121916Z 10007KT 11/M11 A3023 RMK A01 T01081110  RH  021%=      5-min Rain = 0
KMD1 121917Z 11006KT 11/M11 A3023 RMK A01 T01101111  RH  020%=      5-min Rain = 0
KMD1 121918Z 10006KT 11/M11 A3023 RMK A01 T01101111  RH  020%=      5-min Rain = 0
KMD1 121919Z 08005KT 11/M11 A3023 RMK A01 T01101110  RH  020%=      5-min Rain = 0
KMD1 121920Z 07005KT 11/M11 A3023 RMK A01 T01111108  RH  020%=      5-min Rain = 0
KMD1 121921Z 12002KT 11/M11 A3022 RMK A01 T01131106  RH  021%=      5-min Rain = 0
KMD1 121922Z 10001KT 12/M10 A3022 RMK A01 T01161104  RH  020%=      5-min Rain = 0
KMD1 121923Z 15002KT 12/M11 A3022 RMK A01 T01191105  RH  020%=      5-min Rain = 0
KMD1 121924Z 15007KT 12/M11 A3022 RMK A01 T01201107  RH  019%=      5-min Rain = 0
KMD1 121925Z 16004KT 12/M11 A3022 RMK A01 T01181109  RH  019%=      5-min Rain = 0
KMD1 121926Z 14005KT 12/M11 A3022 RMK A01 T01171108  RH  020%=      5-min Rain = 0
KMD1 121927Z 09008KT 12/M11 A3022 RMK A01 T01161109  RH  020%=      5-min Rain = 0
KMD1 121928Z 08006KT 11/M11 A3022 RMK A01 T01131112  RH  019%=      5-min Rain = 0
KMD1 121929Z 07005KT 11/M11 A3022 RMK A01 T01101114  RH  019%=      5-min Rain = 0
KMD1 121930Z 08007KT 11/M11 A3022 RMK A01 T01101112  RH  020%=      5-min Rain = 0
KMD1 121931Z 11006KT 11/M11 A3022 RMK A01 T01101111  RH  020%=      5-min Rain = 0
KMD1 121932Z 10003KT 11/M11 A3022 RMK A01 T01111108  RH  020%=      5-min Rain = 0
KMD1 121933Z 09004KT 12/M10 A3022 RMK A01 T01151102  RH  021%=      5-min Rain = 0
KMD1 121934Z 11004KT 12/M11 A3022 RMK A01 T01171107  RH  020%=      5-min Rain = 0
KMD1 121935Z 05005KT 12/M11 A3022 RMK A01 T01171111  RH  019%=      5-min Rain = 0
KMD1 121941Z 06005KT 11/M11 A3021 RMK A01 T01131113  RH  019%=      5-min Rain = 0
KMD1 121942Z 05006KT 11/M11 A3021 RMK A01 T01131111  RH  020%=      5-min Rain = 0
KMD1 121943Z 06004KT 11/M11 A3021 RMK A01 T01131114  RH  019%=      5-min Rain = 0
KMD1 121944Z 07004KT 11/M11 A3021 RMK A01 T01121113  RH  019%=      5-min Rain = 0
KMD1 121945Z 06005KT 11/M11 A3021 RMK A01 T01131108  RH  020%=      5-min Rain = 0
KMD1 121946Z 06007KT 12/M11 A3021 RMK A01 T01161111  RH  019%=      5-min Rain = 0
KMD1 121947Z 08008KT 12/M11 A3021 RMK A01 T01161113  RH  019%=      5-min Rain = 0
KMD1 121948Z 10005KT 11/M12 A3021 RMK A01 T01141118  RH  018%=      5-min Rain = 0
KMD1 121949Z 08006KT 11/M11 A3021 RMK A01 T01141112  RH  019%=      5-min Rain = 0
KMD1 121950Z 08007KT 12/M11 A3021 RMK A01 T01161114  RH  019%=      5-min Rain = 0
KMD1 121951Z 08006KT 12/M12 A3021 RMK A01 T01171116  RH  018%=      5-min Rain = 0
KMD1 121952Z 07003KT 11/M12 A3021 RMK A01 T01141121  RH  018%=      5-min Rain = 0
KMD1 121953Z 07003KT 11/M12 A3021 RMK A01 T01121120  RH  018%=      5-min Rain = 0
KMD1 121954Z 07005KT 11/M12 A3021 RMK A01 T01121117  RH  019%=      5-min Rain = 0
KMD1 121955Z 09007KT 11/M11 A3021 RMK A01 T01141114  RH  019%=      5-min Rain = 0
KMD1 121956Z 11006KT 12/M11 A3021 RMK A01 T01151114  RH  019%=      5-min Rain = 0
KMD1 121957Z 10004KT 12/M12 A3021 RMK A01 T01151115  RH  019%=      5-min Rain = 0
KMD1 121958Z 11004KT 12/M11 A3021 RMK A01 T01161111  RH  019%=      5-min Rain = 0
KMD1 121959Z 13006KT 12/M11 A302 RMK A01 T01191109  RH  019%=      5-min Rain = 0
KMD1 122000Z 15005KT 12/M11 A302 RMK A01 T01211111  RH  019%=      5-min Rain = 0
KMD1 122001Z 13003KT 12/M11 A302 RMK A01 T01211112  RH  018%=      5-min Rain = 0
KMD1 122002Z 09007KT 12/M12 A302 RMK A01 T01201115  RH  018%=      5-min Rain = 0
KMD1 122003Z 10006KT 12/M12 A302 RMK A01 T01181115  RH  018%=      5-min Rain = 0
KMD1 122004Z 11005KT 12/M12 A302 RMK A01 T01171115  RH  018%=      5-min Rain = 0
KMD1 122005Z 10002KT 12/M12 A302 RMK A01 T01161117  RH  018%=      5-min Rain = 0
KMD1 122006Z 13003KT 12/M12 A302 RMK A01 T01161116  RH  019%=      5-min Rain = 0
KMD1 122007Z 08008KT 12/M11 A302 RMK A01 T01191112  RH  019%=      5-min Rain = 0
KMD1 122008Z 10006KT 12/M11 A302 RMK A01 T01201112  RH  019%=      5-min Rain = 0
KMD1 122009Z 14004KT 12/M12 A302 RMK A01 T01191115  RH  018%=      5-min Rain = 0
KMD1 122010Z 13004KT 12/M12 A302 RMK A01 T01171115  RH  018%=      5-min Rain = 0
KMD1 122011Z 06004KT 12/M11 A302 RMK A01 T01191110  RH  019%=      5-min Rain = 0
KMD1 122012Z 02003KT 12/M12 A302 RMK A01 T01201116  RH  018%=      5-min Rain = 0
KMD1 122013Z 09003KT 12/M11 A302 RMK A01 T01191112  RH  019%=      5-min Rain = 0
KMD1 122014Z 06004KT 12/M11 A3019 RMK A01 T01211110  RH  019%=      5-min Rain = 0
KMD1 122015Z 05004KT 12/M11 A3019 RMK A01 T01221113  RH  018%=      5-min Rain = 0
KMD1 122016Z 06006KT 12/M11 A3019 RMK A01 T01221113  RH  018%=      5-min Rain = 0
KMD1 122017Z 06005KT 12/M11 A3019 RMK A01 T01211114  RH  018%=      5-min Rain = 0
KMD1 122018Z 04003KT 12/M12 A3019 RMK A01 T01191115  RH  018%=      5-min Rain = 0
KMD1 122019Z 07004KT 12/M11 A3019 RMK A01 T01191113  RH  019%=      5-min Rain = 0
KMD1 122020Z 08007KT 12/M11 A3019 RMK A01 T01211110  RH  019%=      5-min Rain = 0
KMD1 122021Z 07006KT 12/M11 A3019 RMK A01 T01231112  RH  018%=      5-min Rain = 0
KMD1 122022Z 08003KT 12/M12 A3019 RMK A01 T01221115  RH  018%=      5-min Rain = 0
KMD1 122023Z 06001KT 12/M12 A3019 RMK A01 T01201117  RH  018%=      5-min Rain = 0
KMD1 122024Z 08005KT 12/M11 A3019 RMK A01 T01201114  RH  018%=      5-min Rain = 0
KMD1 122025Z 06003KT 12/M11 A3019 RMK A01 T01211114  RH  018%=      5-min Rain = 0
KMD1 122026Z 06005KT 12/M11 A3019 RMK A01 T01221111  RH  018%=      5-min Rain = 0
KMD1 122027Z 06008KT 12/M11 A3019 RMK A01 T01231112  RH  018%=      5-min Rain = 0
KMD1 122028Z 09007KT 13/M11 A3019 RMK A01 T01251109  RH  018%=      5-min Rain = 0
KMD1 122029Z 08005KT 13/M11 A3019 RMK A01 T01261111  RH  018%=      5-min Rain = 0
KMD1 122030Z 05004KT 13/M11 A3019 RMK A01 T01251113  RH  018%=      5-min Rain = 0
KMD1 122031Z 07006KT 12/M11 A3019 RMK A01 T01231114  RH  018%=      5-min Rain = 0
KMD1 122032Z 08005KT 12/M11 A3019 RMK A01 T01221113  RH  018%=      5-min Rain = 0
KMD1 122033Z 10006KT 12/M11 A3019 RMK A01 T01221112  RH  018%=      5-min Rain = 0
KMD1 122034Z 08004KT 12/M11 A3019 RMK A01 T01221111  RH  018%=      5-min Rain = 0
KMD1 122035Z 15006KT 12/M10 A3019 RMK A01 T01241104  RH  019%=      5-min Rain = 0
KMD1 122036Z 16005KT 13/M11 A3019 RMK A01 T01271107  RH  018%=      5-min Rain = 0
KMD1 122037Z 12003KT 13/M11 A3019 RMK A01 T01281109  RH  018%=      5-min Rain = 0
KMD1 122038Z 09004KT 13/M11 A3019 RMK A01 T01281110  RH  018%=      5-min Rain = 0
KMD1 122039Z 13006KT 13/M11 A3019 RMK A01 T01281108  RH  018%=      5-min Rain = 0
KMD1 122040Z 13003KT 13/M11 A3019 RMK A01 T01281113  RH  018%=      5-min Rain = 0
KMD1 122041Z 14001KT 13/M12 A3019 RMK A01 T01261116  RH  017%=      5-min Rain = 0
KMD1 122042Z 08006KT 13/M11 A3019 RMK A01 T01261114  RH  018%=      5-min Rain = 0
KMD1 122043Z 09005KT 13/M11 A3019 RMK A01 T01251112  RH  018%=      5-min Rain = 0
KMD1 122044Z 07007KT 13/M11 A3019 RMK A01 T01261109  RH  018%=      5-min Rain = 0
KMD1 122045Z 08006KT 13/M11 A3019 RMK A01 T01271110  RH  018%=      5-min Rain = 0
KMD1 122046Z 07005KT 13/M11 A3019 RMK A01 T01251112  RH  018%=      5-min Rain = 0
KMD1 122047Z 05002KT 12/M11 A3018 RMK A01 T01231114  RH  018%=      5-min Rain = 0
KMD1 122048Z 07006KT 12/M11 A3018 RMK A01 T01231109  RH  019%=      5-min Rain = 0
KMD1 122049Z 07005KT 13/M11 A3018 RMK A01 T01261107  RH  019%=      5-min Rain = 0
KMD1 122050Z 05006KT 13/M11 A3018 RMK A01 T01261109  RH  018%=      5-min Rain = 0
KMD1 122051Z 05006KT 13/M11 A3018 RMK A01 T01271108  RH  018%=      5-min Rain = 0
KMD1 122052Z 08004KT 13/M11 A3018 RMK A01 T01271107  RH  019%=      5-min Rain = 0
KMD1 122053Z 06005KT 13/M11 A3018 RMK A01 T01281107  RH  018%=      5-min Rain = 0
KMD1 122054Z 06006KT 13/M11 A3018 RMK A01 T01291106  RH  018%=      5-min Rain = 0
KMD1 122055Z 10006KT 13/M11 A3018 RMK A01 T01301105  RH  018%=      5-min Rain = 0
KMD1 122056Z 11008KT 13/M11 A3018 RMK A01 T01301106  RH  018%=      5-min Rain = 0
KMD1 122057Z 12007KT 13/M11 A3018 RMK A01 T01291109  RH  018%=      5-min Rain = 0
KMD1 122058Z 09007KT 13/M11 A3018 RMK A01 T01271108  RH  018%=      5-min Rain = 0
KMD1 122059Z 10003KT 13/M11 A3018 RMK A01 T01271108  RH  018%=      5-min Rain = 0
KMD1 122100Z 09003KT 13/M11 A3018 RMK A01 T01281107  RH  018%=      5-min Rain = 0
KMD1 122101Z 09003KT 13/M11 A3018 RMK A01 T01291108  RH  018%=      5-min Rain = 0
KMD1 122102Z 09006KT 13/M11 A3018 RMK A01 T01291107  RH  018%=      5-min Rain = 0
KMD1 122103Z 09005KT 13/M11 A3018 RMK A01 T01291108  RH  018%=      5-min Rain = 0
KMD1 122104Z 08004KT 13/M11 A3018 RMK A01 T01291106  RH  018%=      5-min Rain = 0
KMD1 122105Z 09006KT 13/M10 A3018 RMK A01 T01311103  RH  019%=      5-min Rain = 0
KMD1 122106Z 07004KT 13/M11 A3018 RMK A01 T01311106  RH  018%=      5-min Rain = 0
KMD1 122107Z 04003KT 13/M11 A3018 RMK A01 T01301108  RH  018%=      5-min Rain = 0
KMD1 122108Z 05001KT 13/M11 A3018 RMK A01 T01291108  RH  018%=      5-min Rain = 0
KMD1 122109Z 10004KT 13/M10 A3018 RMK A01 T01301104  RH  019%=      5-min Rain = 0
KMD1 122110Z 11005KT 13/M10 A3018 RMK A01 T01321099  RH  019%=      5-min Rain = 0
KMD1 122111Z 11004KT 13/M10 A3018 RMK A01 T01341098  RH  019%=      5-min Rain = 0
KMD1 122112Z 13007KT 14/M10 A3018 RMK A01 T01351098  RH  019%=      5-min Rain = 0
KMD1 122113Z 13008KT 14/M09 A3018 RMK A01 T01371094  RH  019%=      5-min Rain = 0
KMD1 122114Z 13008KT 14/M10 A3018 RMK A01 T01381095  RH  019%=      5-min Rain = 0
KMD1 122115Z 13006KT 14/M10 A3018 RMK A01 T01381095  RH  019%=      5-min Rain = 0
KMD1 122116Z 13006KT 14/M10 A3018 RMK A01 T01351100  RH  019%=      5-min Rain = 0
KMD1 122117Z 13005KT 13/M10 A3018 RMK A01 T01331098  RH  019%=      5-min Rain = 0
KMD1 122118Z 17002KT 13/M10 A3017 RMK A01 T01331098  RH  019%=      5-min Rain = 0
KMD1 122119Z 15002KT 13/M10 A3017 RMK A01 T01341099  RH  019%=      5-min Rain = 0
KMD1 122120Z 11003KT 13/M10 A3018 RMK A01 T01341099  RH  019%=      5-min Rain = 0
KMD1 122121Z 12004KT 14/M10 A3018 RMK A01 T01351097  RH  019%=      5-min Rain = 0
KMD1 122122Z 14003KT 14/M10 A3018 RMK A01 T01351099  RH  019%=      5-min Rain = 0
KMD1 122123Z 11004KT 14/M10 A3018 RMK A01 T01351099  RH  019%=      5-min Rain = 0
KMD1 122124Z 05002KT 13/M10 A3018 RMK A01 T01341098  RH  019%=      5-min Rain = 0
KMD1 122125Z 35000KT 13/M10 A3018 RMK A01 T01341101  RH  018%=      5-min Rain = 0
KMD1 122126Z 16001KT 14/M10 A3017 RMK A01 T01361101  RH  018%=      5-min Rain = 0
KMD1 122127Z 10004KT 14/M10 A3018 RMK A01 T01381097  RH  019%=      5-min Rain = 0
KMD1 122128Z 08005KT 14/M10 A3018 RMK A01 T01391095  RH  019%=      5-min Rain = 0
KMD1 122129Z 11007KT 14/M10 A3017 RMK A01 T01381095  RH  019%=      5-min Rain = 0
KMD1 122130Z 12007KT 14/M09 A3017 RMK A01 T01381093  RH  019%=      5-min Rain = 0
KMD1 122131Z 12008KT 14/M09 A3017 RMK A01 T01401089  RH  020%=      5-min Rain = 0
KMD1 122132Z 10009KT 14/M09 A3017 RMK A01 T01411092  RH  019%=      5-min Rain = 0
KMD1 122133Z 11007KT 14/M09 A3017 RMK A01 T01401093  RH  019%=      5-min Rain = 0
KMD1 122134Z 12006KT 14/M09 A3017 RMK A01 T01391093  RH  019%=      5-min Rain = 0
KMD1 122135Z 13006KT 14/M09 A3017 RMK A01 T01391093  RH  019%=      5-min Rain = 0
KMD1 122136Z 13004KT 14/M09 A3017 RMK A01 T01391091  RH  019%=      5-min Rain = 0
KMD1 122137Z 14003KT 14/M09 A3017 RMK A01 T01411093  RH  019%=      5-min Rain = 0
KMD1 122138Z 16001KT 14/M10 A3017 RMK A01 T01401095  RH  019%=      5-min Rain = 0
KMD1 122139Z 21005KT 14/M10 A3017 RMK A01 T01401095  RH  019%=      5-min Rain = 0
KMD1 122140Z 23004KT 14/M10 A3017 RMK A01 T01391097  RH  018%=      5-min Rain = 0
KMD1 122141Z 22004KT 14/M10 A3017 RMK A01 T01381096  RH  019%=      5-min Rain = 0
KMD1 122142Z 22003KT 14/M09 A3017 RMK A01 T01381094  RH  019%=      5-min Rain = 0
KMD1 122143Z 18004KT 14/M09 A3017 RMK A01 T01391093  RH  019%=      5-min Rain = 0
KMD1 122144Z 17005KT 14/M09 A3017 RMK A01 T01401094  RH  019%=      5-min Rain = 0
KMD1 122145Z 14003KT 14/M10 A3018 RMK A01 T01401095  RH  019%=      5-min Rain = 0
KMD1 122146Z 10003KT 14/M10 A3018 RMK A01 T01381096  RH  019%=      5-min Rain = 0
KMD1 122147Z 07001KT 14/M10 A3018 RMK A01 T01361098  RH  019%=      5-min Rain = 0
KMD1 122148Z 08002KT 14/M10 A3018 RMK A01 T01361096  RH  019%=      5-min Rain = 0
KMD1 122149Z 09002KT 14/M10 A3018 RMK A01 T01361097  RH  019%=      5-min Rain = 0
KMD1 122150Z 06001KT 14/M10 A3018 RMK A01 T01361096  RH  019%=      5-min Rain = 0
KMD1 122151Z 07004KT 14/M10 A3018 RMK A01 T01351097  RH  019%=      5-min Rain = 0
KMD1 122152Z 07005KT 14/M10 A3018 RMK A01 T01351099  RH  019%=      5-min Rain = 0
KMD1 122153Z 05003KT 14/M10 A3017 RMK A01 T01361096  RH  019%=      5-min Rain = 0
KMD1 122154Z 06001KT 14/M10 A3017 RMK A01 T01381100  RH  018%=      5-min Rain = 0
KMD1 122155Z 03001KT 14/M10 A3017 RMK A01 T01371100  RH  018%=      5-min Rain = 0
KMD1 122156Z 07002KT 14/M10 A3017 RMK A01 T01381099  RH  018%=      5-min Rain = 0
KMD1 122157Z 09003KT 14/M10 A3017 RMK A01 T01381101  RH  018%=      5-min Rain = 0
KMD1 122158Z 12006KT 14/M10 A3017 RMK A01 T01371097  RH  019%=      5-min Rain = 0
KMD1 122159Z 14004KT 14/M10 A3017 RMK A01 T01381097  RH  019%=      5-min Rain = 0
KMD1 122200Z 10005KT 14/M10 A3017 RMK A01 T01371097  RH  019%=      5-min Rain = 0
KMD1 122201Z 09005KT 14/M10 A3017 RMK A01 T01371098  RH  019%=      5-min Rain = 0
KMD1 122202Z 08005KT 14/M10 A3017 RMK A01 T01371098  RH  019%=      5-min Rain = 0
KMD1 122203Z 07004KT 14/M10 A3017 RMK A01 T01351100  RH  019%=      5-min Rain = 0
KMD1 122204Z 06004KT 13/M10 A3017 RMK A01 T01341100  RH  019%=      5-min Rain = 0
KMD1 122205Z 07005KT 13/M10 A3017 RMK A01 T01341099  RH  019%=      5-min Rain = 0
KMD1 122206Z 07005KT 13/M10 A3017 RMK A01 T01341098  RH  019%=      5-min Rain = 0
KMD1 122207Z 07005KT 14/M10 A3017 RMK A01 T01361097  RH  019%=      5-min Rain = 0
KMD1 122208Z 09003KT 14/M10 A3017 RMK A01 T01371097  RH  019%=      5-min Rain = 0
KMD1 122209Z 11004KT 14/M10 A3017 RMK A01 T01381095  RH  019%=      5-min Rain = 0
KMD1 122210Z 11004KT 14/M10 A3017 RMK A01 T01381095  RH  019%=      5-min Rain = 0
KMD1 122211Z 08003KT 14/M10 A3018 RMK A01 T01381097  RH  019%=      5-min Rain = 0
KMD1 122212Z 07005KT 14/M10 A3018 RMK A01 T01381096  RH  019%=      5-min Rain = 0
KMD1 122213Z 07003KT 14/M10 A3018 RMK A01 T01371099  RH  018%=      5-min Rain = 0
KMD1 122214Z 10002KT 14/M10 A3018 RMK A01 T01361100  RH  018%=      5-min Rain = 0
KMD1 122215Z 13003KT 14/M10 A3017 RMK A01 T01361098  RH  019%=      5-min Rain = 0
KMD1 122216Z 16005KT 14/M09 A3017 RMK A01 T01371094  RH  019%=      5-min Rain = 0
KMD1 122217Z 16004KT 14/M10 A3018 RMK A01 T01381095  RH  019%=      5-min Rain = 0
KMD1 122218Z 13004KT 14/M10 A3018 RMK A01 T01381097  RH  019%=      5-min Rain = 0
KMD1 122219Z 16002KT 14/M10 A3017 RMK A01 T01371097  RH  019%=      5-min Rain = 0
KMD1 122220Z 14001KT 14/M10 A3017 RMK A01 T01361096  RH  019%=      5-min Rain = 0
KMD1 122221Z 18003KT 14/M09 A3017 RMK A01 T01371093  RH  019%=      5-min Rain = 0
KMD1 122222Z 17005KT 14/M09 A3017 RMK A01 T01391092  RH  019%=      5-min Rain = 0
KMD1 122223Z 17007KT 14/M09 A3017 RMK A01 T01411092  RH  019%=      5-min Rain = 0
KMD1 122224Z 18006KT 14/M10 A3017 RMK A01 T01391096  RH  019%=      5-min Rain = 0
KMD1 122225Z 19004KT 14/M09 A3017 RMK A01 T01381094  RH  019%=      5-min Rain = 0
KMD1 122226Z 19004KT 14/M10 A3017 RMK A01 T01381095  RH  019%=      5-min Rain = 0
KMD1 122227Z 20003KT 14/M10 A3018 RMK A01 T01391095  RH  019%=      5-min Rain = 0
KMD1 122228Z 15002KT 14/M10 A3018 RMK A01 T01391096  RH  019%=      5-min Rain = 0
KMD1 122229Z 14004KT 14/M09 A3018 RMK A01 T01391094  RH  019%=      5-min Rain = 0
KMD1 122230Z 18004KT 14/M09 A3018 RMK A01 T01391094  RH  019%=      5-min Rain = 0
KMD1 122231Z 16006KT 14/M09 A3017 RMK A01 T01401090  RH  019%=      5-min Rain = 0
KMD1 122232Z 19006KT 14/M09 A3018 RMK A01 T01411090  RH  019%=      5-min Rain = 0
KMD1 122233Z 20005KT 14/M09 A3018 RMK A01 T01411089  RH  019%=      5-min Rain = 0
KMD1 122234Z 16003KT 14/M09 A3018 RMK A01 T01421092  RH  019%=      5-min Rain = 0
KMD1 122235Z 20003KT 14/M09 A3018 RMK A01 T01401091  RH  019%=      5-min Rain = 0
KMD1 122236Z 20005KT 14/M09 A3018 RMK A01 T01411091  RH  019%=      5-min Rain = 0
KMD1 122237Z 19005KT 14/M09 A3018 RMK A01 T01401094  RH  019%=      5-min Rain = 0
KMD1 122238Z 18004KT 14/M09 A3018 RMK A01 T01401093  RH  019%=      5-min Rain = 0
KMD1 122239Z 19003KT 14/M09 A3018 RMK A01 T01391093  RH  019%=      5-min Rain = 0
KMD1 122240Z 17003KT 14/M09 A3018 RMK A01 T01391093  RH  019%=      5-min Rain = 0
KMD1 122241Z 16002KT 14/M09 A3018 RMK A01 T01391092  RH  019%=      5-min Rain = 0
KMD1 122242Z 18002KT 14/M09 A3018 RMK A01 T01401092  RH  019%=      5-min Rain = 0
KMD1 122243Z 17001KT 14/M09 A3018 RMK A01 T01411092  RH  019%=      5-min Rain = 0
KMD1 122244Z 13002KT 14/M09 A3018 RMK A01 T01421092  RH  019%=      5-min Rain = 0
KMD1 122245Z 11005KT 14/M09 A3018 RMK A01 T01411093  RH  019%=      5-min Rain = 0
KMD1 122246Z 11004KT 14/M09 A3018 RMK A01 T01381094  RH  019%=      5-min Rain = 0
KMD1 122247Z 10004KT 14/M09 A3018 RMK A01 T01371092  RH  020%=      5-min Rain = 0
KMD1 122248Z 11004KT 14/M09 A3018 RMK A01 T01361093  RH  019%=      5-min Rain = 0
KMD1 122249Z 10005KT 14/M09 A3018 RMK A01 T01361091  RH  020%=      5-min Rain = 0
KMD1 122250Z 11006KT 14/M09 A3018 RMK A01 T01361090  RH  020%=      5-min Rain = 0
KMD1 122251Z 12007KT 14/M09 A3018 RMK A01 T01361089  RH  020%=      5-min Rain = 0
KMD1 122252Z 16005KT 14/M09 A3018 RMK A01 T01361088  RH  020%=      5-min Rain = 0
KMD1 122253Z 17003KT 14/M09 A3018 RMK A01 T01361090  RH  020%=      5-min Rain = 0
KMD1 122254Z 14003KT 14/M09 A3018 RMK A01 T01361090  RH  020%=      5-min Rain = 0
KMD1 122255Z 14003KT 14/M09 A3018 RMK A01 T01371089  RH  020%=      5-min Rain = 0
KMD1 122256Z 14005KT 14/M09 A3018 RMK A01 T01371087  RH  020%=      5-min Rain = 0
KMD1 122257Z 12007KT 14/M09 A3018 RMK A01 T01381088  RH  020%=      5-min Rain = 0
KMD1 122258Z 12007KT 14/M09 A3018 RMK A01 T01371089  RH  020%=      5-min Rain = 0
KMD1 122259Z 12006KT 14/M09 A3018 RMK A01 T01351090  RH  020%=      5-min Rain = 0
KMD1 122300Z 12006KT 13/M09 A3018 RMK A01 T01341089  RH  020%=      5-min Rain = 0
KMD1 122301Z 12004KT 13/M09 A3018 RMK A01 T01341089  RH  020%=      5-min Rain = 0
KMD1 122302Z 12004KT 13/M09 A3018 RMK A01 T01341090  RH  020%=      5-min Rain = 0
KMD1 122303Z 11006KT 13/M09 A3018 RMK A01 T01341091  RH  020%=      5-min Rain = 0
KMD1 122304Z 10006KT 13/M09 A3018 RMK A01 T01331089  RH  021%=      5-min Rain = 0
KMD1 122305Z 10005KT 13/M09 A3018 RMK A01 T01321089  RH  021%=      5-min Rain = 0
KMD1 122306Z 09005KT 13/M09 A3018 RMK A01 T01321092  RH  020%=      5-min Rain = 0
KMD1 122307Z 09005KT 13/M09 A3018 RMK A01 T01311092  RH  020%=      5-min Rain = 0
KMD1 122308Z 09004KT 13/M09 A3019 RMK A01 T01311092  RH  020%=      5-min Rain = 0
KMD1 122309Z 08004KT 13/M09 A3019 RMK A01 T01311088  RH  021%=      5-min Rain = 0
KMD1 122310Z 07005KT 13/M09 A3019 RMK A01 T01301090  RH  021%=      5-min Rain = 0
KMD1 122311Z 10005KT 13/M09 A3019 RMK A01 T01311088  RH  021%=      5-min Rain = 0
KMD1 122312Z 11005KT 13/M09 A3019 RMK A01 T01301088  RH  021%=      5-min Rain = 0
KMD1 122313Z 11004KT 13/M09 A3019 RMK A01 T01301088  RH  021%=      5-min Rain = 0
KMD1 122314Z 11005KT 13/M09 A3019 RMK A01 T01301088  RH  021%=      5-min Rain = 0
KMD1 122315Z 09007KT 13/M09 A3019 RMK A01 T01301089  RH  021%=      5-min Rain = 0
KMD1 122316Z 10008KT 13/M09 A3019 RMK A01 T01291091  RH  021%=      5-min Rain = 0
KMD1 122317Z 10006KT 13/M09 A3019 RMK A01 T01281092  RH  021%=      5-min Rain = 0
KMD1 122318Z 09005KT 13/M09 A3019 RMK A01 T01271091  RH  021%=      5-min Rain = 0
KMD1 122319Z 10007KT 13/M09 A3019 RMK A01 T01271090  RH  021%=      5-min Rain = 0
KMD1 122320Z 10005KT 13/M09 A3019 RMK A01 T01261090  RH  021%=      5-min Rain = 0
KMD1 122321Z 10004KT 13/M09 A3019 RMK A01 T01261089  RH  021%=      5-min Rain = 0
KMD1 122322Z 10005KT 13/M09 A3019 RMK A01 T01251088  RH  022%=      5-min Rain = 0
KMD1 122323Z 11005KT 13/M09 A3019 RMK A01 T01251089  RH  022%=      5-min Rain = 0
KMD1 122324Z 11005KT 12/M09 A3019 RMK A01 T01241089  RH  022%=      5-min Rain = 0
KMD1 122325Z 11007KT 12/M09 A3019 RMK A01 T01241089  RH  022%=      5-min Rain = 0
KMD1 122326Z 11006KT 12/M09 A3019 RMK A01 T01231090  RH  022%=      5-min Rain = 0
KMD1 122327Z 11006KT 12/M09 A3019 RMK A01 T01231091  RH  022%=      5-min Rain = 0
KMD1 122328Z 11006KT 12/M09 A3019 RMK A01 T01231090  RH  022%=      5-min Rain = 0
KMD1 122329Z 11006KT 12/M09 A3019 RMK A01 T01231091  RH  022%=      5-min Rain = 0
KMD1 122330Z 10006KT 12/M09 A3019 RMK A01 T01231089  RH  022%=      5-min Rain = 0
KMD1 122331Z 10006KT 12/M09 A3019 RMK A01 T01211089  RH  022%=      5-min Rain = 0
KMD1 122332Z 10005KT 12/M09 A3019 RMK A01 T01201090  RH  022%=      5-min Rain = 0
KMD1 122333Z 10006KT 12/M09 A3019 RMK A01 T01191089  RH  022%=      5-min Rain = 0
KMD1 122334Z 10005KT 12/M09 A3019 RMK A01 T01181090  RH  022%=      5-min Rain = 0
KMD1 122335Z 09005KT 12/M09 A3019 RMK A01 T01171091  RH  022%=      5-min Rain = 0
KMD1 122336Z 10006KT 12/M09 A3019 RMK A01 T01171091  RH  022%=      5-min Rain = 0
KMD1 122337Z 09006KT 12/M09 A3019 RMK A01 T01171090  RH  023%=      5-min Rain = 0
KMD1 122338Z 10007KT 12/M09 A3019 RMK A01 T01161090  RH  023%=      5-min Rain = 0
KMD1 122339Z 10006KT 12/M09 A3019 RMK A01 T01161091  RH  023%=      5-min Rain = 0
KMD1 122340Z 10006KT 12/M09 A3019 RMK A01 T01161090  RH  023%=      5-min Rain = 0
KMD1 122341Z 10005KT 12/M09 A3019 RMK A01 T01151090  RH  023%=      5-min Rain = 0
KMD1 122342Z 10006KT 11/M09 A3019 RMK A01 T01141090  RH  023%=      5-min Rain = 0
KMD1 122343Z 10006KT 11/M09 A3019 RMK A01 T01121090  RH  023%=      5-min Rain = 0
KMD1 122344Z 10005KT 11/M09 A3019 RMK A01 T01121090  RH  023%=      5-min Rain = 0
KMD1 122345Z 10006KT 11/M09 A3019 RMK A01 T01111090  RH  023%=      5-min Rain = 0
KMD1 122346Z 10005KT 11/M09 A3019 RMK A01 T01101090  RH  024%=      5-min Rain = 0
KMD1 122347Z 10005KT 11/M09 A3019 RMK A01 T01081090  RH  024%=      5-min Rain = 0
KMD1 122348Z 10005KT 11/M09 A3019 RMK A01 T01081089  RH  024%=      5-min Rain = 0
KMD1 122349Z 10006KT 11/M09 A3019 RMK A01 T01081090  RH  024%=      5-min Rain = 0
KMD1 122350Z 10006KT 11/M09 A3019 RMK A01 T01071090  RH  024%=      5-min Rain = 0
KMD1 122351Z 10005KT 11/M09 A3019 RMK A01 T01061090  RH  024%=      5-min Rain = 0
KMD1 122352Z 10005KT 11/M09 A3019 RMK A01 T01051090  RH  025%=      5-min Rain = 0
KMD1 122353Z 10005KT 10/M09 A3019 RMK A01 T01041090  RH  025%=      5-min Rain = 0
KMD1 122354Z 09005KT 10/M09 A3019 RMK A01 T01031090  RH  025%=      5-min Rain = 0
KMD1 122355Z 09005KT 10/M09 A3019 RMK A01 T01021089  RH  025%=      5-min Rain = 0
KMD1 122356Z 09005KT 10/M09 A3019 RMK A01 T01021090  RH  025%=      5-min Rain = 0
KMD1 122357Z 10005KT 10/M09 A3019 RMK A01 T01001090  RH  025%=      5-min Rain = 0
KMD1 122358Z 09005KT 10/M09 A3019 RMK A01 T00991090  RH  025%=      5-min Rain = 0
KMD1 122359Z 09005KT 10/M09 A3019 RMK A01 T00991090  RH  025%=      5-min Rain = 0
KMD1 130000Z 09005KT 10/M09 A3019 RMK A01 T00981090  RH  025%=      5-min Rain = 0
KMD1 130001Z 09005KT 10/M09 A3019 RMK A01 T00971091  RH  026%=      5-min Rain = 0
KMD1 130002Z 09005KT 10/M09 A3019 RMK A01 T00961091  RH  026%=      5-min Rain = 0
KMD1 130003Z 09005KT 10/M09 A3019 RMK A01 T00951091  RH  026%=      5-min Rain = 0
KMD1 130004Z 09004KT 10/M09 A3019 RMK A01 T00951091  RH  026%=      5-min Rain = 0
KMD1 130005Z 09005KT 10/M09 A3019 RMK A01 T00951092  RH  026%=      5-min Rain = 0
KMD1 130006Z 09005KT 10/M09 A3019 RMK A01 T00951092  RH  026%=      5-min Rain = 0
KMD1 130007Z 09005KT 10/M09 A3019 RMK A01 T00951092  RH  026%=      5-min Rain = 0
KMD1 130008Z 09005KT 09/M09 A3019 RMK A01 T00941092  RH  026%=      5-min Rain = 0
KMD1 130009Z 09005KT 09/M09 A3019 RMK A01 T00931092  RH  026%=      5-min Rain = 0
KMD1 130010Z 09005KT 09/M09 A3019 RMK A01 T00921092  RH  026%=      5-min Rain = 0
KMD1 130011Z 09005KT 09/M09 A3019 RMK A01 T00911092  RH  026%=      5-min Rain = 0
KMD1 130012Z 09005KT 09/M09 A3019 RMK A01 T00901092  RH  026%=      5-min Rain = 0
KMD1 130013Z 09005KT 09/M09 A3019 RMK A01 T00901092  RH  026%=      5-min Rain = 0
KMD1 130014Z 09005KT 09/M09 A3019 RMK A01 T00911093  RH  026%=      5-min Rain = 0
KMD1 130015Z 09005KT 09/M09 A3019 RMK A01 T00911093  RH  026%=      5-min Rain = 0
KMD1 130016Z 09005KT 09/M09 A3019 RMK A01 T00911093  RH  026%=      5-min Rain = 0
KMD1 130017Z 09005KT 09/M09 A3019 RMK A01 T00911093  RH  026%=      5-min Rain = 0
KMD1 130018Z 09004KT 09/M09 A3019 RMK A01 T00891093  RH  027%=      5-min Rain = 0
KMD1 130019Z 09004KT 09/M09 A3019 RMK A01 T00881093  RH  027%=      5-min Rain = 0
KMD1 130020Z 09004KT 09/M09 A3019 RMK A01 T00871093  RH  027%=      5-min Rain = 0
KMD1 130021Z 08004KT 09/M09 A3019 RMK A01 T00871093  RH  027%=      5-min Rain = 0
KMD1 130022Z 08004KT 09/M09 A3019 RMK A01 T00871093  RH  027%=      5-min Rain = 0
KMD1 130023Z 09004KT 09/M09 A3019 RMK A01 T00871093  RH  027%=      5-min Rain = 0
KMD1 130024Z 09004KT 09/M09 A3019 RMK A01 T00871093  RH  027%=      5-min Rain = 0
KMD1 130025Z 09004KT 09/M09 A3019 RMK A01 T00871092  RH  027%=      5-min Rain = 0
KMD1 130026Z 09003KT 09/M09 A3019 RMK A01 T00871091  RH  027%=      5-min Rain = 0
KMD1 130027Z 09004KT 09/M09 A302 RMK A01 T00871090  RH  028%=      5-min Rain = 0
KMD1 130028Z 09004KT 09/M09 A302 RMK A01 T00861091  RH  028%=      5-min Rain = 0
KMD1 130029Z 08004KT 09/M09 A302 RMK A01 T00871090  RH  028%=      5-min Rain = 0
KMD1 130030Z 07004KT 09/M09 A302 RMK A01 T00861090  RH  028%=      5-min Rain = 0
KMD1 130031Z 08005KT 09/M09 A302 RMK A01 T00861091  RH  028%=      5-min Rain = 0
KMD1 130032Z 08005KT 09/M09 A302 RMK A01 T00851092  RH  028%=      5-min Rain = 0
KMD1 130033Z 08004KT 09/M09 A302 RMK A01 T00851092  RH  028%=      5-min Rain = 0
KMD1 130034Z 08005KT 08/M09 A302 RMK A01 T00841092  RH  028%=      5-min Rain = 0
KMD1 130035Z 08005KT 08/M09 A302 RMK A01 T00811092  RH  028%=      5-min Rain = 0
KMD1 130036Z 09006KT 08/M09 A302 RMK A01 T00791092  RH  029%=      5-min Rain = 0
KMD1 130037Z 09006KT 08/M09 A302 RMK A01 T00781092  RH  029%=      5-min Rain = 0
KMD1 130038Z 09006KT 08/M09 A302 RMK A01 T00771092  RH  029%=      5-min Rain = 0
KMD1 130039Z 09006KT 08/M09 A302 RMK A01 T00761092  RH  029%=      5-min Rain = 0
KMD1 130040Z 08006KT 08/M09 A302 RMK A01 T00751092  RH  030%=      5-min Rain = 0
KMD1 130041Z 09006KT 07/M09 A302 RMK A01 T00741092  RH  030%=      5-min Rain = 0
KMD1 130042Z 09006KT 07/M09 A302 RMK A01 T00731093  RH  029%=      5-min Rain = 0
KMD1 130043Z 09006KT 07/M09 A302 RMK A01 T00741094  RH  029%=      5-min Rain = 0
KMD1 130044Z 09006KT 07/M09 A302 RMK A01 T00741094  RH  029%=      5-min Rain = 0
KMD1 130045Z 09006KT 07/M09 A302 RMK A01 T00731094  RH  029%=      5-min Rain = 0
KMD1 130046Z 09005KT 07/M10 A302 RMK A01 T00731095  RH  029%=      5-min Rain = 0
KMD1 130047Z 09005KT 07/M10 A302 RMK A01 T00721095  RH  029%=      5-min Rain = 0
KMD1 130048Z 09005KT 07/M10 A302 RMK A01 T00721096  RH  029%=      5-min Rain = 0
KMD1 130049Z 08005KT 07/M10 A302 RMK A01 T00721096  RH  029%=      5-min Rain = 0
KMD1 130050Z 08004KT 07/M10 A302 RMK A01 T00731097  RH  029%=      5-min Rain = 0
KMD1 130051Z 08004KT 07/M10 A302 RMK A01 T00721097  RH  029%=      5-min Rain = 0
KMD1 130052Z 08004KT 07/M10 A302 RMK A01 T00711097  RH  029%=      5-min Rain = 0
KMD1 130053Z 08004KT 07/M10 A302 RMK A01 T00711097  RH  029%=      5-min Rain = 0
KMD1 130054Z 08004KT 07/M10 A302 RMK A01 T00711097  RH  029%=      5-min Rain = 0
KMD1 130055Z 07005KT 07/M10 A302 RMK A01 T00711097  RH  029%=      5-min Rain = 0
KMD1 130056Z 07004KT 07/M10 A302 RMK A01 T00711097  RH  029%=      5-min Rain = 0
KMD1 130057Z 07005KT 07/M10 A302 RMK A01 T00711097  RH  029%=      5-min Rain = 0
KMD1 130058Z 06005KT 07/M10 A3021 RMK A01 T00711097  RH  029%=      5-min Rain = 0
KMD1 130059Z 06005KT 07/M10 A3021 RMK A01 T00701098  RH  029%=      5-min Rain = 0
KMD1 130100Z 06005KT 07/M10 A3021 RMK A01 T00701097  RH  029%=      5-min Rain = 0
KMD1 130101Z 06005KT 07/M10 A3021 RMK A01 T00691097  RH  030%=      5-min Rain = 0
KMD1 130102Z 07005KT 07/M10 A3021 RMK A01 T00681097  RH  030%=      5-min Rain = 0
KMD1 130103Z 07005KT 07/M10 A3021 RMK A01 T00671098  RH  030%=      5-min Rain = 0
KMD1 130104Z 07006KT 07/M10 A3021 RMK A01 T00651097  RH  030%=      5-min Rain = 0
KMD1 130105Z 08006KT 06/M10 A3021 RMK A01 T00641097  RH  031%=      5-min Rain = 0
KMD1 130106Z 08006KT 06/M10 A3021 RMK A01 T00621097  RH  031%=      5-min Rain = 0
KMD1 130107Z 08006KT 06/M10 A3021 RMK A01 T00611097  RH  031%=      5-min Rain = 0
KMD1 130108Z 09006KT 06/M10 A3021 RMK A01 T00601097  RH  031%=      5-min Rain = 0
KMD1 130109Z 09006KT 06/M10 A3021 RMK A01 T00611097  RH  031%=      5-min Rain = 0
KMD1 130110Z 09006KT 06/M10 A3021 RMK A01 T00621098  RH  031%=      5-min Rain = 0
KMD1 130111Z 09006KT 06/M10 A3021 RMK A01 T00621098  RH  031%=      5-min Rain = 0
KMD1 130112Z 08006KT 06/M10 A3021 RMK A01 T00631098  RH  031%=      5-min Rain = 0
KMD1 130113Z 08006KT 06/M10 A3021 RMK A01 T00621098  RH  031%=      5-min Rain = 0
KMD1 130114Z 08007KT 06/M10 A3021 RMK A01 T00621099  RH  030%=      5-min Rain = 0
KMD1 130115Z 08007KT 06/M10 A3021 RMK A01 T00621099  RH  031%=      5-min Rain = 0
KMD1 130116Z 07006KT 06/M10 A3021 RMK A01 T00621099  RH  031%=      5-min Rain = 0
KMD1 130117Z 07006KT 06/M10 A3022 RMK A01 T00621099  RH  030%=      5-min Rain = 0
KMD1 130118Z 07006KT 06/M10 A3022 RMK A01 T00621099  RH  030%=      5-min Rain = 0
KMD1 130119Z 08006KT 06/M10 A3022 RMK A01 T00611099  RH  031%=      5-min Rain = 0
KMD1 130120Z 08006KT 06/M10 A3022 RMK A01 T00611099  RH  031%=      5-min Rain = 0
KMD1 130121Z 08006KT 06/M10 A3022 RMK A01 T00611099  RH  031%=      5-min Rain = 0
KMD1 130122Z 08006KT 06/M10 A3022 RMK A01 T00601099  RH  031%=      5-min Rain = 0
KMD1 130123Z 08006KT 06/M10 A3022 RMK A01 T00591100  RH  031%=      5-min Rain = 0
KMD1 130124Z 08006KT 06/M10 A3022 RMK A01 T00591100  RH  031%=      5-min Rain = 0
KMD1 130125Z 08006KT 06/M10 A3022 RMK A01 T00591100  RH  031%=      5-min Rain = 0
KMD1 130126Z 08006KT 06/M10 A3022 RMK A01 T00591100  RH  031%=      5-min Rain = 0
KMD1 130127Z 08006KT 06/M10 A3022 RMK A01 T00581100  RH  031%=      5-min Rain = 0
KMD1 130128Z 08006KT 06/M10 A3022 RMK A01 T00571100  RH  031%=      5-min Rain = 0
KMD1 130129Z 08006KT 06/M10 A3022 RMK A01 T00561100  RH  031%=      5-min Rain = 0
KMD1 130130Z 08006KT 06/M10 A3022 RMK A01 T00561100  RH  031%=      5-min Rain = 0
KMD1 130131Z 08006KT 06/M10 A3022 RMK A01 T00561100  RH  031%=      5-min Rain = 0
KMD1 130132Z 08006KT 06/M10 A3022 RMK A01 T00561101  RH  031%=      5-min Rain = 0
KMD1 130133Z 08006KT 06/M10 A3022 RMK A01 T00571101  RH  031%=      5-min Rain = 0
KMD1 130134Z 08006KT 06/M10 A3022 RMK A01 T00571101  RH  031%=      5-min Rain = 0
KMD1 130135Z 08006KT 06/M10 A3023 RMK A01 T00571101  RH  031%=      5-min Rain = 0
KMD1 130136Z 08006KT 06/M10 A3023 RMK A01 T00561101  RH  031%=      5-min Rain = 0
KMD1 130137Z 08006KT 06/M10 A3023 RMK A01 T00561100  RH  031%=      5-min Rain = 0
KMD1 130138Z 08006KT 06/M10 A3023 RMK A01 T00551100  RH  032%=      5-min Rain = 0
KMD1 130139Z 08006KT 06/M10 A3023 RMK A01 T00551100  RH  032%=      5-min Rain = 0
KMD1 130140Z 08006KT 06/M10 A3023 RMK A01 T00551100  RH  032%=      5-min Rain = 0
KMD1 130141Z 09005KT 06/M10 A3023 RMK A01 T00551101  RH  032%=      5-min Rain = 0
KMD1 130142Z 09005KT 05/M10 A3023 RMK A01 T00541101  RH  032%=      5-min Rain = 0
KMD1 130143Z 09005KT 05/M10 A3023 RMK A01 T00541101  RH  032%=      5-min Rain = 0
KMD1 130144Z 09005KT 05/M10 A3023 RMK A01 T00541101  RH  032%=      5-min Rain = 0
KMD1 130145Z 08006KT 05/M10 A3023 RMK A01 T00531101  RH  032%=      5-min Rain = 0
KMD1 130146Z 08006KT 05/M10 A3023 RMK A01 T00531102  RH  032%=      5-min Rain = 0
KMD1 130147Z 08006KT 05/M10 A3023 RMK A01 T00531101  RH  032%=      5-min Rain = 0
KMD1 130148Z 07005KT 05/M10 A3024 RMK A01 T00531101  RH  032%=      5-min Rain = 0
KMD1 130149Z 07005KT 05/M10 A3024 RMK A01 T00521101  RH  032%=      5-min Rain = 0
KMD1 130150Z 07005KT 05/M10 A3024 RMK A01 T00501101  RH  032%=      5-min Rain = 0
KMD1 130151Z 08005KT 05/M10 A3024 RMK A01 T00501101  RH  033%=      5-min Rain = 0
KMD1 130152Z 08005KT 05/M10 A3024 RMK A01 T00501101  RH  033%=      5-min Rain = 0
KMD1 130153Z 08005KT 05/M10 A3024 RMK A01 T00491101  RH  033%=      5-min Rain = 0
KMD1 130154Z 08005KT 05/M10 A3024 RMK A01 T00481101  RH  033%=      5-min Rain = 0
KMD1 130155Z 08005KT 05/M10 A3024 RMK A01 T00471101  RH  033%=      5-min Rain = 0
KMD1 130156Z 08005KT 05/M10 A3024 RMK A01 T00471100  RH  033%=      5-min Rain = 0
KMD1 130157Z 08005KT 05/M10 A3024 RMK A01 T00471101  RH  033%=      5-min Rain = 0
KMD1 130158Z 08005KT 05/M10 A3024 RMK A01 T00471101  RH  033%=      5-min Rain = 0
KMD1 130159Z 08005KT 05/M10 A3024 RMK A01 T00471101  RH  033%=      5-min Rain = 0
KMD1 130200Z 07005KT 05/M10 A3024 RMK A01 T00481101  RH  033%=      5-min Rain = 0
KMD1 130201Z 07004KT 05/M10 A3024 RMK A01 T00481101  RH  033%=      5-min Rain = 0
KMD1 130202Z 07005KT 05/M10 A3024 RMK A01 T00471101  RH  033%=      5-min Rain = 0
KMD1 130203Z 07005KT 05/M10 A3025 RMK A01 T00471100  RH  034%=      5-min Rain = 0
KMD1 130204Z 07005KT 05/M10 A3025 RMK A01 T00461099  RH  034%=      5-min Rain = 0
KMD1 130205Z 07006KT 05/M10 A3025 RMK A01 T00461099  RH  034%=      5-min Rain = 0
KMD1 130206Z 07005KT 05/M10 A3025 RMK A01 T00461099  RH  034%=      5-min Rain = 0
KMD1 130207Z 07005KT 05/M10 A3025 RMK A01 T00461099  RH  034%=      5-min Rain = 0
KMD1 130208Z 07005KT 05/M10 A3025 RMK A01 T00451099  RH  034%=      5-min Rain = 0
KMD1 130209Z 06005KT 05/M10 A3025 RMK A01 T00451099  RH  034%=      5-min Rain = 0
KMD1 130210Z 06005KT 04/M10 A3025 RMK A01 T00431098  RH  035%=      5-min Rain = 0
KMD1 130211Z 07005KT 04/M10 A3025 RMK A01 T00411098  RH  036%=      5-min Rain = 0
KMD1 130212Z 06005KT 04/M10 A3025 RMK A01 T00401098  RH  036%=      5-min Rain = 0
KMD1 130213Z 07005KT 04/M10 A3025 RMK A01 T00401098  RH  036%=      5-min Rain = 0
KMD1 130214Z 06005KT 04/M10 A3025 RMK A01 T00391099  RH  036%=      5-min Rain = 0
KMD1 130215Z 07005KT 04/M10 A3025 RMK A01 T00391099  RH  036%=      5-min Rain = 0
KMD1 130216Z 07005KT 04/M10 A3025 RMK A01 T00391099  RH  036%=      5-min Rain = 0
KMD1 130217Z 07005KT 04/M10 A3025 RMK A01 T00391099  RH  036%=      5-min Rain = 0
KMD1 130218Z 07005KT 04/M10 A3025 RMK A01 T00401100  RH  035%=      5-min Rain = 0
KMD1 130219Z 07005KT 04/M10 A3025 RMK A01 T00411100  RH  035%=      5-min Rain = 0
KMD1 130220Z 07005KT 04/M10 A3025 RMK A01 T00411100  RH  035%=      5-min Rain = 0
KMD1 130221Z 06005KT 04/M10 A3025 RMK A01 T00411100  RH  035%=      5-min Rain = 0
KMD1 130222Z 06005KT 04/M10 A3026 RMK A01 T00411100  RH  035%=      5-min Rain = 0
KMD1 130223Z 06005KT 04/M10 A3026 RMK A01 T00411101  RH  035%=      5-min Rain = 0
KMD1 130224Z 06005KT 04/M10 A3026 RMK A01 T00401100  RH  035%=      5-min Rain = 0
KMD1 130225Z 06005KT 04/M10 A3026 RMK A01 T00391101  RH  035%=      5-min Rain = 0
KMD1 130226Z 05005KT 04/M10 A3026 RMK A01 T00391100  RH  035%=      5-min Rain = 0
KMD1 130227Z 05005KT 04/M10 A3026 RMK A01 T00381100  RH  036%=      5-min Rain = 0
KMD1 130228Z 05005KT 04/M10 A3026 RMK A01 T00381100  RH  036%=      5-min Rain = 0
KMD1 130229Z 05005KT 04/M10 A3026 RMK A01 T00361099  RH  036%=      5-min Rain = 0
KMD1 130230Z 05005KT 04/M10 A3026 RMK A01 T00351098  RH  037%=      5-min Rain = 0
KMD1 130231Z 05005KT 03/M10 A3026 RMK A01 T00331098  RH  038%=      5-min Rain = 0
KMD1 130232Z 06005KT 03/M10 A3026 RMK A01 T00331097  RH  038%=      5-min Rain = 0
KMD1 130233Z 06005KT 03/M10 A3026 RMK A01 T00311096  RH  039%=      5-min Rain = 0
KMD1 130234Z 06005KT 03/M10 A3026 RMK A01 T00301095  RH  039%=      5-min Rain = 0
KMD1 130235Z 06004KT 03/M09 A3027 RMK A01 T00301094  RH  040%=      5-min Rain = 0
KMD1 130236Z 06004KT 03/M09 A3027 RMK A01 T00301092  RH  040%=      5-min Rain = 0
KMD1 130237Z 06004KT 03/M09 A3027 RMK A01 T00261092  RH  042%=      5-min Rain = 0
KMD1 130238Z 06004KT 02/M09 A3027 RMK A01 T00241092  RH  042%=      5-min Rain = 0
KMD1 130239Z 06004KT 03/M09 A3027 RMK A01 T00261091  RH  042%=      5-min Rain = 0
KMD1 130240Z 06004KT 03/M09 A3027 RMK A01 T00271092  RH  041%=      5-min Rain = 0
KMD1 130241Z 06004KT 03/M09 A3027 RMK A01 T00281093  RH  041%=      5-min Rain = 0
KMD1 130242Z 07004KT 03/M09 A3027 RMK A01 T00281094  RH  040%=      5-min Rain = 0
KMD1 130243Z 07004KT 03/M09 A3027 RMK A01 T00281094  RH  040%=      5-min Rain = 0
KMD1 130244Z 07004KT 03/M10 A3027 RMK A01 T00281095  RH  040%=      5-min Rain = 0
KMD1 130245Z 07005KT 03/M10 A3027 RMK A01 T00281095  RH  040%=      5-min Rain = 0
KMD1 130246Z 08004KT 03/M10 A3027 RMK A01 T00281096  RH  039%=      5-min Rain = 0
KMD1 130247Z 08004KT 03/M10 A3027 RMK A01 T00291096  RH  039%=      5-min Rain = 0
KMD1 130248Z 08004KT 03/M10 A3027 RMK A01 T00291097  RH  039%=      5-min Rain = 0
KMD1 130249Z 08004KT 03/M10 A3027 RMK A01 T00301097  RH  039%=      5-min Rain = 0
KMD1 130250Z 08004KT 03/M10 A3027 RMK A01 T00301097  RH  039%=      5-min Rain = 0
KMD1 130251Z 08004KT 03/M10 A3027 RMK A01 T00301097  RH  039%=      5-min Rain = 0
KMD1 130252Z 07004KT 03/M10 A3027 RMK A01 T00311097  RH  038%=      5-min Rain = 0
KMD1 130253Z 07004KT 03/M10 A3027 RMK A01 T00311098  RH  038%=      5-min Rain = 0
KMD1 130254Z 08003KT 03/M10 A3027 RMK A01 T00311098  RH  038%=      5-min Rain = 0
KMD1 130255Z 08004KT 03/M10 A3027 RMK A01 T00311099  RH  038%=      5-min Rain = 0
KMD1 130256Z 08003KT 03/M10 A3027 RMK A01 T00311099  RH  038%=      5-min Rain = 0
KMD1 130257Z 07003KT 03/M10 A3027 RMK A01 T00311099  RH  038%=      5-min Rain = 0
KMD1 130258Z 06003KT 03/M10 A3028 RMK A01 T00311100  RH  038%=      5-min Rain = 0
KMD1 130259Z 06003KT 03/M10 A3028 RMK A01 T00311100  RH  038%=      5-min Rain = 0
KMD1 130300Z 06003KT 03/M10 A3028 RMK A01 T00311099  RH  038%=      5-min Rain = 0
KMD1 130301Z 05003KT 03/M10 A3028 RMK A01 T00301099  RH  038%=      5-min Rain = 0
KMD1 130302Z 05003KT 03/M10 A3028 RMK A01 T00301098  RH  038%=      5-min Rain = 0
KMD1 130303Z 06003KT 03/M10 A3028 RMK A01 T00301097  RH  039%=      5-min Rain = 0
KMD1 130304Z 05004KT 03/M10 A3028 RMK A01 T00291096  RH  039%=      5-min Rain = 0
KMD1 130305Z 05004KT 03/M10 A3028 RMK A01 T00281096  RH  040%=      5-min Rain = 0
KMD1 130306Z 05004KT 03/M10 A3028 RMK A01 T00281096  RH  040%=      5-min Rain = 0
KMD1 130307Z 06004KT 03/M10 A3028 RMK A01 T00271097  RH  040%=      5-min Rain = 0
KMD1 130308Z 06004KT 03/M10 A3028 RMK A01 T00271097  RH  040%=      5-min Rain = 0
KMD1 130309Z 06004KT 03/M10 A3028 RMK A01 T00261097  RH  040%=      5-min Rain = 0
KMD1 130310Z 06004KT 03/M10 A3029 RMK A01 T00261097  RH  040%=      5-min Rain = 0
KMD1 130311Z 06004KT 03/M10 A3029 RMK A01 T00251096  RH  040%=      5-min Rain = 0
KMD1 130312Z 06004KT 03/M10 A3029 RMK A01 T00251096  RH  041%=      5-min Rain = 0
KMD1 130313Z 06004KT 02/M10 A3029 RMK A01 T00241096  RH  041%=      5-min Rain = 0
KMD1 130314Z 06004KT 02/M10 A3029 RMK A01 T00231096  RH  041%=      5-min Rain = 0
KMD1 130315Z 06004KT 02/M10 A3029 RMK A01 T00231096  RH  041%=      5-min Rain = 0
KMD1 130316Z 05004KT 02/M10 A3029 RMK A01 T00221096  RH  041%=      5-min Rain = 0
KMD1 130317Z 05004KT 02/M10 A3029 RMK A01 T00211095  RH  042%=      5-min Rain = 0
KMD1 130318Z 05004KT 02/M10 A3029 RMK A01 T00201095  RH  042%=      5-min Rain = 0
KMD1 130319Z 06004KT 02/M10 A303 RMK A01 T00201096  RH  042%=      5-min Rain = 0
KMD1 130320Z 05004KT 02/M10 A303 RMK A01 T00201096  RH  042%=      5-min Rain = 0
KMD1 130321Z 06004KT 02/M10 A303 RMK A01 T00201096  RH  042%=      5-min Rain = 0
KMD1 130322Z 06004KT 02/M10 A303 RMK A01 T00191096  RH  042%=      5-min Rain = 0
KMD1 130323Z 06004KT 02/M10 A303 RMK A01 T00191096  RH  042%=      5-min Rain = 0
KMD1 130324Z 06005KT 02/M10 A303 RMK A01 T00181096  RH  042%=      5-min Rain = 0
KMD1 130325Z 05004KT 02/M10 A303 RMK A01 T00181096  RH  043%=      5-min Rain = 0
KMD1 130326Z 05004KT 02/M10 A303 RMK A01 T00171095  RH  043%=      5-min Rain = 0
KMD1 130327Z 05004KT 02/M10 A303 RMK A01 T00161095  RH  044%=      5-min Rain = 0
KMD1 130328Z 05005KT 02/M09 A303 RMK A01 T00161094  RH  044%=      5-min Rain = 0
KMD1 130329Z 06004KT 02/M10 A303 RMK A01 T00161095  RH  043%=      5-min Rain = 0
KMD1 130330Z 05004KT 02/M10 A303 RMK A01 T00161095  RH  043%=      5-min Rain = 0
KMD1 130331Z 05004KT 02/M10 A303 RMK A01 T00171095  RH  043%=      5-min Rain = 0
KMD1 130332Z 05004KT 02/M10 A303 RMK A01 T00161096  RH  043%=      5-min Rain = 0
KMD1 130333Z 05004KT 02/M10 A303 RMK A01 T00171096  RH  043%=      5-min Rain = 0
KMD1 130334Z 05004KT 02/M10 A303 RMK A01 T00171095  RH  043%=      5-min Rain = 0
KMD1 130335Z 04004KT 02/M10 A303 RMK A01 T00171096  RH  043%=      5-min Rain = 0
KMD1 130336Z 04004KT 02/M10 A3031 RMK A01 T00171096  RH  043%=      5-min Rain = 0
KMD1 130337Z 05004KT 02/M10 A3031 RMK A01 T00171097  RH  043%=      5-min Rain = 0
KMD1 130338Z 04004KT 02/M10 A3031 RMK A01 T00171097  RH  043%=      5-min Rain = 0
KMD1 130339Z 04004KT 02/M10 A3031 RMK A01 T00171097  RH  043%=      5-min Rain = 0
KMD1 130340Z 04004KT 02/M10 A3031 RMK A01 T00171098  RH  042%=      5-min Rain = 0
KMD1 130341Z 04004KT 02/M10 A3031 RMK A01 T00181098  RH  042%=      5-min Rain = 0
KMD1 130342Z 05004KT 02/M10 A3031 RMK A01 T00181098  RH  042%=      5-min Rain = 0
KMD1 130343Z 04004KT 02/M10 A3031 RMK A01 T00181099  RH  042%=      5-min Rain = 0
KMD1 130344Z 04003KT 02/M10 A3031 RMK A01 T00191098  RH  042%=      5-min Rain = 0
KMD1 130345Z 03003KT 02/M10 A3031 RMK A01 T00191098  RH  042%=      5-min Rain = 0
KMD1 130346Z 03003KT 02/M10 A3031 RMK A01 T00181097  RH  042%=      5-min Rain = 0
KMD1 130347Z 03003KT 02/M10 A3032 RMK A01 T00151097  RH  043%=      5-min Rain = 0
KMD1 130348Z 03003KT 02/M10 A3032 RMK A01 T00151096  RH  043%=      5-min Rain = 0
KMD1 130349Z 04003KT 01/M10 A3032 RMK A01 T00141096  RH  044%=      5-min Rain = 0
KMD1 130350Z 04003KT 01/M10 A3032 RMK A01 T00141095  RH  044%=      5-min Rain = 0
KMD1 130351Z 04003KT 01/M10 A3032 RMK A01 T00141096  RH  044%=      5-min Rain = 0
KMD1 130352Z 04003KT 01/M10 A3032 RMK A01 T00141096  RH  044%=      5-min Rain = 0
KMD1 130353Z 04003KT 01/M10 A3032 RMK A01 T00141096  RH  044%=      5-min Rain = 0
KMD1 130354Z 05003KT 01/M10 A3032 RMK A01 T00141096  RH  044%=      5-min Rain = 0
KMD1 130355Z 05004KT 01/M10 A3032 RMK A01 T00131097  RH  044%=      5-min Rain = 0
KMD1 130356Z 06003KT 01/M10 A3032 RMK A01 T00131096  RH  044%=      5-min Rain = 0
KMD1 130357Z 06004KT 01/M10 A3032 RMK A01 T00131097  RH  044%=      5-min Rain = 0
KMD1 130358Z 06004KT 01/M10 A3032 RMK A01 T00141097  RH  043%=      5-min Rain = 0
KMD1 130359Z 06004KT 02/M10 A3032 RMK A01 T00151097  RH  043%=      5-min Rain = 0
KMD1 130400Z 06004KT 02/M10 A3032 RMK A01 T00171098  RH  042%=      5-min Rain = 0
KMD1 130401Z 06004KT 02/M10 A3032 RMK A01 T00171098  RH  042%=      5-min Rain = 0
KMD1 130402Z 06004KT 02/M10 A3033 RMK A01 T00171097  RH  043%=      5-min Rain = 0
KMD1 130403Z 06004KT 02/M10 A3033 RMK A01 T00151097  RH  043%=      5-min Rain = 0
KMD1 130404Z 06004KT 01/M10 A3033 RMK A01 T00141097  RH  043%=      5-min Rain = 0
KMD1 130405Z 06004KT 01/M10 A3033 RMK A01 T00141097  RH  043%=      5-min Rain = 0
KMD1 130406Z 06004KT 02/M10 A3033 RMK A01 T00151097  RH  043%=      5-min Rain = 0
KMD1 130407Z 06003KT 02/M10 A3033 RMK A01 T00151097  RH  043%=      5-min Rain = 0
KMD1 130408Z 07003KT 02/M10 A3033 RMK A01 T00151097  RH  043%=      5-min Rain = 0
KMD1 130409Z 06003KT 02/M10 A3033 RMK A01 T00161097  RH  043%=      5-min Rain = 0
KMD1 130410Z 07004KT 02/M10 A3033 RMK A01 T00161098  RH  042%=      5-min Rain = 0
KMD1 130411Z 07004KT 02/M10 A3033 RMK A01 T00171098  RH  042%=      5-min Rain = 0
KMD1 130412Z 07004KT 02/M10 A3033 RMK A01 T00181098  RH  042%=      5-min Rain = 0
KMD1 130413Z 07004KT 02/M10 A3033 RMK A01 T00181098  RH  042%=      5-min Rain = 0
KMD1 130414Z 07003KT 02/M10 A3033 RMK A01 T00181098  RH  042%=      5-min Rain = 0
KMD1 130415Z 06004KT 02/M10 A3033 RMK A01 T00181097  RH  042%=      5-min Rain = 0
KMD1 130416Z 07003KT 02/M10 A3034 RMK A01 T00181097  RH  042%=      5-min Rain = 0
KMD1 130417Z 07003KT 02/M10 A3034 RMK A01 T00181096  RH  042%=      5-min Rain = 0
KMD1 130418Z 07003KT 02/M10 A3034 RMK A01 T00181096  RH  043%=      5-min Rain = 0
KMD1 130419Z 08004KT 02/M10 A3034 RMK A01 T00171096  RH  043%=      5-min Rain = 0
KMD1 130420Z 08004KT 02/M10 A3034 RMK A01 T00171096  RH  043%=      5-min Rain = 0
KMD1 130421Z 08003KT 02/M10 A3034 RMK A01 T00161096  RH  043%=      5-min Rain = 0
KMD1 130422Z 08003KT 02/M10 A3034 RMK A01 T00161096  RH  043%=      5-min Rain = 0
KMD1 130423Z 08003KT 02/M10 A3034 RMK A01 T00161096  RH  043%=      5-min Rain = 0
KMD1 130424Z 08003KT 02/M10 A3034 RMK A01 T00161096  RH  043%=      5-min Rain = 0
KMD1 130425Z 08004KT 02/M10 A3034 RMK A01 T00161096  RH  043%=      5-min Rain = 0
KMD1 130426Z 08004KT 02/M10 A3034 RMK A01 T00161097  RH  043%=      5-min Rain = 0
KMD1 130427Z 08004KT 02/M10 A3034 RMK A01 T00171097  RH  043%=      5-min Rain = 0
KMD1 130428Z 09004KT 02/M10 A3034 RMK A01 T00171097  RH  042%=      5-min Rain = 0
KMD1 130429Z 09004KT 02/M10 A3034 RMK A01 T00171098  RH  042%=      5-min Rain = 0
KMD1 130430Z 09004KT 02/M10 A3034 RMK A01 T00171097  RH  042%=      5-min Rain = 0
KMD1 130431Z 09004KT 02/M10 A3034 RMK A01 T00181097  RH  042%=      5-min Rain = 0
KMD1 130432Z 10004KT 02/M10 A3034 RMK A01 T00181097  RH  042%=      5-min Rain = 0
KMD1 130433Z 10003KT 02/M10 A3034 RMK A01 T00181097  RH  042%=      5-min Rain = 0
KMD1 130434Z 11003KT 02/M10 A3034 RMK A01 T00171098  RH  042%=      5-min Rain = 0
KMD1 130435Z 12003KT 02/M10 A3034 RMK A01 T00161098  RH  042%=      5-min Rain = 0
KMD1 130436Z 11003KT 02/M10 A3034 RMK A01 T00151098  RH  043%=      5-min Rain = 0
KMD1 130437Z 10003KT 02/M10 A3034 RMK A01 T00151099  RH  043%=      5-min Rain = 0
KMD1 130438Z 10004KT 01/M10 A3034 RMK A01 T00141099  RH  043%=      5-min Rain = 0
KMD1 130439Z 11004KT 01/M10 A3034 RMK A01 T00141099  RH  043%=      5-min Rain = 0
KMD1 130440Z 11004KT 01/M10 A3034 RMK A01 T00141099  RH  043%=      5-min Rain = 0
KMD1 130441Z 10004KT 01/M10 A3034 RMK A01 T00131099  RH  043%=      5-min Rain = 0
KMD1 130442Z 10003KT 01/M10 A3034 RMK A01 T00131098  RH  043%=      5-min Rain = 0
KMD1 130443Z 09003KT 01/M10 A3034 RMK A01 T00121099  RH  043%=      5-min Rain = 0
KMD1 130444Z 07003KT 01/M10 A3034 RMK A01 T00121099  RH  044%=      5-min Rain = 0
KMD1 130445Z 07003KT 01/M10 A3035 RMK A01 T00121098  RH  044%=      5-min Rain = 0
KMD1 130446Z 07003KT 01/M10 A3035 RMK A01 T00121098  RH  044%=      5-min Rain = 0
KMD1 130447Z 06003KT 01/M10 A3035 RMK A01 T00131098  RH  043%=      5-min Rain = 0
KMD1 130448Z 07003KT 01/M10 A3035 RMK A01 T00131098  RH  043%=      5-min Rain = 0
KMD1 130449Z 07003KT 01/M10 A3035 RMK A01 T00131098  RH  043%=      5-min Rain = 0
KMD1 130450Z 08003KT 01/M10 A3035 RMK A01 T00131098  RH  043%=      5-min Rain = 0
KMD1 130451Z 08003KT 01/M10 A3035 RMK A01 T00121098  RH  044%=      5-min Rain = 0
KMD1 130452Z 08003KT 01/M10 A3035 RMK A01 T00121097  RH  044%=      5-min Rain = 0
KMD1 130453Z 08003KT 01/M10 A3035 RMK A01 T00121098  RH  044%=      5-min Rain = 0
KMD1 130454Z 08003KT 01/M10 A3035 RMK A01 T00121098  RH  044%=      5-min Rain = 0
KMD1 130455Z 08003KT 01/M10 A3035 RMK A01 T00121098  RH  044%=      5-min Rain = 0
KMD1 130456Z 07003KT 01/M10 A3035 RMK A01 T00121098  RH  044%=      5-min Rain = 0
KMD1 130457Z 06004KT 01/M10 A3035 RMK A01 T00121098  RH  044%=      5-min Rain = 0
KMD1 130458Z 07004KT 01/M10 A3035 RMK A01 T00121097  RH  044%=      5-min Rain = 0
KMD1 130459Z 07004KT 01/M10 A3035 RMK A01 T00101097  RH  045%=      5-min Rain = 0
KMD1 130500Z 08004KT 01/M10 A3035 RMK A01 T00071096  RH  046%=      5-min Rain = 0
KMD1 130501Z 09004KT 01/M10 A3035 RMK A01 T00061095  RH  047%=      5-min Rain = 0
KMD1 130502Z 10005KT 01/M10 A3035 RMK A01 T00061096  RH  047%=      5-min Rain = 0
KMD1 130503Z 10005KT 01/M10 A3035 RMK A01 T00061095  RH  047%=      5-min Rain = 0
KMD1 130504Z 10004KT 01/M10 A3035 RMK A01 T00061095  RH  047%=      5-min Rain = 0
KMD1 130505Z 10004KT 01/M10 A3035 RMK A01 T00061095  RH  047%=      5-min Rain = 0
KMD1 130506Z 09005KT 01/M10 A3035 RMK A01 T00061095  RH  047%=      5-min Rain = 0
KMD1 130507Z 09004KT 01/M10 A3035 RMK A01 T00051095  RH  047%=      5-min Rain = 0
KMD1 130508Z 08004KT 00/M10 A3035 RMK A01 T00041096  RH  047%=      5-min Rain = 0
KMD1 130509Z 07004KT 01/M10 A3035 RMK A01 T00051096  RH  047%=      5-min Rain = 0
KMD1 130510Z 07004KT 01/M10 A3035 RMK A01 T00051095  RH  047%=      5-min Rain = 0
KMD1 130511Z 08004KT 01/M10 A3035 RMK A01 T00051096  RH  047%=      5-min Rain = 0
KMD1 130512Z 08004KT 00/M10 A3035 RMK A01 T00041095  RH  047%=      5-min Rain = 0
KMD1 130513Z 08004KT 00/M10 A3035 RMK A01 T00041095  RH  047%=      5-min Rain = 0
KMD1 130514Z 08004KT 00/M10 A3035 RMK A01 T00041096  RH  047%=      5-min Rain = 0
KMD1 130515Z 08004KT 00/M10 A3035 RMK A01 T00041096  RH  047%=      5-min Rain = 0
KMD1 130516Z 07004KT 01/M10 A3035 RMK A01 T00051096  RH  047%=      5-min Rain = 0
KMD1 130517Z 07004KT 01/M10 A3036 RMK A01 T00051097  RH  046%=      5-min Rain = 0
KMD1 130518Z 07004KT 01/M10 A3036 RMK A01 T00051096  RH  046%=      5-min Rain = 0
KMD1 130519Z 07003KT 01/M10 A3036 RMK A01 T00051096  RH  046%=      5-min Rain = 0
KMD1 130520Z 07003KT 01/M10 A3036 RMK A01 T00051096  RH  047%=      5-min Rain = 0
KMD1 130521Z 06003KT 01/M10 A3036 RMK A01 T00061096  RH  046%=      5-min Rain = 0
KMD1 130522Z 06004KT 01/M10 A3036 RMK A01 T00061096  RH  046%=      5-min Rain = 0
KMD1 130523Z 06004KT 01/M10 A3036 RMK A01 T00061096  RH  046%=      5-min Rain = 0
KMD1 130524Z 05004KT 00/M10 A3036 RMK A01 T00041096  RH  047%=      5-min Rain = 0
KMD1 130525Z 05004KT 00/M10 A3036 RMK A01 T00011096  RH  048%=      5-min Rain = 0
KMD1 130526Z 05004KT 00/10 A3036 RMK A01 T00-00-96  RH  049%=      5-min Rain = 0
KMD1 130527Z 05004KT M00/M10 A3036 RMK A01 T10011096  RH  049%=      5-min Rain = 0
KMD1 130528Z 04004KT M00/M10 A3036 RMK A01 T10011096  RH  049%=      5-min Rain = 0
KMD1 130529Z 05004KT M00/M10 A3037 RMK A01 T10021096  RH  049%=      5-min Rain = 0
KMD1 130530Z 04005KT M00/M10 A3037 RMK A01 T10041096  RH  050%=      5-min Rain = 0
KMD1 130531Z 05005KT M00/M10 A3037 RMK A01 T10041096  RH  050%=      5-min Rain = 0
KMD1 130532Z 05005KT M01/M10 A3037 RMK A01 T10051095  RH  051%=      5-min Rain = 0
KMD1 130533Z 05005KT M01/M10 A3037 RMK A01 T10071095  RH  051%=      5-min Rain = 0
KMD1 130534Z 05005KT M01/M10 A3037 RMK A01 T10081095  RH  052%=      5-min Rain = 0
KMD1 130535Z 04005KT M01/M10 A3037 RMK A01 T10081095  RH  052%=      5-min Rain = 0
KMD1 130536Z 04004KT M01/M10 A3037 RMK A01 T10101095  RH  052%=      5-min Rain = 0
KMD1 130537Z 05004KT M01/M10 A3037 RMK A01 T10121096  RH  053%=      5-min Rain = 0
KMD1 130538Z 05004KT M01/M10 A3037 RMK A01 T10131095  RH  054%=      5-min Rain = 0
KMD1 130539Z 05004KT M01/M10 A3037 RMK A01 T10141095  RH  054%=      5-min Rain = 0
KMD1 130540Z 06004KT M01/M10 A3037 RMK A01 T10141095  RH  054%=      5-min Rain = 0
KMD1 130541Z 06004KT M01/M10 A3037 RMK A01 T10131095  RH  053%=      5-min Rain = 0
KMD1 130542Z 06004KT M01/M10 A3037 RMK A01 T10111096  RH  053%=      5-min Rain = 0
KMD1 130543Z 07003KT M01/M10 A3037 RMK A01 T10081097  RH  051%=      5-min Rain = 0
KMD1 130544Z 07003KT M01/M10 A3037 RMK A01 T10061098  RH  050%=      5-min Rain = 0
KMD1 130545Z 07003KT M00/M10 A3037 RMK A01 T10041098  RH  049%=      5-min Rain = 0
KMD1 130546Z 07003KT M00/M10 A3037 RMK A01 T10031099  RH  048%=      5-min Rain = 0
KMD1 130547Z 07003KT M00/M10 A3037 RMK A01 T10011099  RH  047%=      5-min Rain = 0
KMD1 130548Z 07003KT 00/10 A3037 RMK A01 T00000-100  RH  047%=      5-min Rain = 0
KMD1 130549Z 07003KT 00/M10 A3037 RMK A01 T00021101  RH  046%=      5-min Rain = 0
KMD1 130550Z 06003KT 00/M10 A3037 RMK A01 T00021101  RH  046%=      5-min Rain = 0
KMD1 130551Z 06003KT 00/M10 A3037 RMK A01 T00031102  RH  045%=      5-min Rain = 0
KMD1 130552Z 06003KT 00/M10 A3037 RMK A01 T00041102  RH  045%=      5-min Rain = 0
KMD1 130553Z 06002KT 00/M10 A3037 RMK A01 T00041102  RH  045%=      5-min Rain = 0
KMD1 130554Z 08002KT 00/M10 A3037 RMK A01 T00041102  RH  045%=      5-min Rain = 0
KMD1 130555Z 08002KT 01/M10 A3037 RMK A01 T00051102  RH  045%=      5-min Rain = 0
KMD1 130556Z 09002KT 00/M10 A3037 RMK A01 T00041102  RH  045%=      5-min Rain = 0
KMD1 130557Z 09002KT 00/M10 A3037 RMK A01 T00041102  RH  045%=      5-min Rain = 0
KMD1 130558Z 09002KT 00/M10 A3037 RMK A01 T00041102  RH  045%=      5-min Rain = 0
KMD1 130559Z 08002KT 00/M10 A3037 RMK A01 T00031102  RH  045%=      5-min Rain = 0

Page generated in 0.1427 seconds.